
Distance (Route):
Temperature : 0°C
Humidity : 0%
Pressure : 0hPa| Receiver | Frames | First received | Last received |
|---|---|---|---|
| MIELECB | 228 | 2026-09-04 23:21:12 | 2026-09-04 23:54:06 |
| SQ9PSP-11 | 112 | 2026-09-04 23:19:50 | 2026-09-04 23:59:07 |
| AKAW68 | 98 | 2026-09-04 23:17:21 | 2026-09-05 00:02:42 |
| AKAW682 | 70 | 2026-09-04 23:23:41 | 2026-09-04 23:55:58 |
| SQ9EZE-12 | 62 | 2026-09-04 23:21:18 | 2026-09-04 23:45:26 |
| SQ9EZE-14 | 1 | 2026-09-04 23:50:30 | 2026-09-04 23:50:30 |
| Receiver | Date | Latitude | Longitude | Direction | Speed | Altitude | Climb | Temperature | Humidity | Pressure | Voltage | Killtimer | Uptime | BKT | XDATA |
|---|---|---|---|---|---|---|---|---|---|---|---|---|---|---|---|
| AKAW68 | 2026-09-05 00:02:42 | 49.99298 | 21.99514 | 98° | 95km/h | 1761m | -0.6m/s | 0°C | 0% | 0hPa | 0V | 00:00:00 | 00:00:00 | 00:00:00 | |
| AKAW68 | 2026-09-05 00:02:18 | 49.99350 | 21.98682 | 95° | 88km/h | 1812m | -2.7m/s | 0°C | 0% | 0hPa | 0V | 00:00:00 | 00:00:00 | 00:00:00 | |
| AKAW68 | 2026-09-05 00:02:00 | 49.99390 | 21.97990 | 90° | 89km/h | 1857m | 1.3m/s | 0°C | 0% | 0hPa | 0V | 00:00:00 | 00:00:00 | 00:00:00 | |
| AKAW68 | 2026-09-05 00:01:38 | 49.99423 | 21.97227 | 95° | 88km/h | 1909m | -1.9m/s | 0°C | 0% | 0hPa | 0V | 00:00:00 | 00:00:00 | 00:00:00 | |
| AKAW68 | 2026-09-05 00:00:55 | 49.99475 | 21.95900 | 92° | 86km/h | 2003m | -2.6m/s | 0°C | 0% | 0hPa | 0V | 00:00:00 | 00:00:00 | 00:00:00 | |
| AKAW68 | 2026-09-05 00:00:35 | 49.99501 | 21.95119 | 93° | 88km/h | 2060m | -1.6m/s | 0°C | 0% | 0hPa | 0V | 00:00:00 | 00:00:00 | 00:00:00 | |
| AKAW68 | 2026-09-05 00:00:10 | 49.99523 | 21.94421 | 94° | 84km/h | 2115m | -2.2m/s | 0°C | 0% | 0hPa | 0V | 00:00:00 | 00:00:00 | 00:00:00 | |
| AKAW68 | 2026-09-04 23:59:29 | 49.99565 | 21.93054 | 90° | 84km/h | 2223m | -3.1m/s | 0°C | 0% | 0hPa | 0V | 00:00:00 | 00:00:00 | 00:00:00 | |
| AKAW68 | 2026-09-04 23:59:08 | 49.99587 | 21.92371 | 93° | 78km/h | 2284m | -1.6m/s | 0°C | 0% | 0hPa | 0V | 00:00:00 | 00:00:00 | 00:00:00 | |
| SQ9PSP-11 | 2026-09-04 23:59:07 | 49.99588 | 21.92340 | 94° | 80km/h | 2286m | 0.0m/s | 0°C | 0% | 0hPa | 0V | 00:00:00 | 00:00:00 | 00:00:00 | |
| SQ9PSP-11 | 2026-09-04 23:58:35 | 49.99624 | 21.91334 | 89° | 75km/h | 2368m | -1.3m/s | 0°C | 0% | 0hPa | 0V | 00:00:00 | 00:00:00 | 00:00:00 | |
| AKAW68 | 2026-09-04 23:57:42 | 49.99630 | 21.89761 | 93° | 78km/h | 2505m | -2.4m/s | 0°C | 0% | 0hPa | 0V | 00:00:00 | 00:00:00 | 00:00:00 | |
| SQ9PSP-11 | 2026-09-04 23:57:16 | 49.99619 | 21.88993 | 93° | 75km/h | 2569m | -2.1m/s | 0°C | 0% | 0hPa | 0V | 00:00:00 | 00:00:00 | 00:00:00 | |
| AKAW68 | 2026-09-04 23:57:12 | 49.99621 | 21.88878 | 94° | 69km/h | 2579m | -1.8m/s | 0°C | 0% | 0hPa | 0V | 00:00:00 | 00:00:00 | 00:00:00 | |
| AKAW68 | 2026-09-04 23:56:51 | 49.99621 | 21.88264 | 92° | 77km/h | 2632m | -1.1m/s | 0°C | 0% | 0hPa | 0V | 00:00:00 | 00:00:00 | 00:00:00 | |
| AKAW68 | 2026-09-04 23:56:30 | 49.99611 | 21.87634 | 90° | 84km/h | 2676m | -1.6m/s | 0°C | 0% | 0hPa | 0V | 00:00:00 | 00:00:00 | 00:00:00 | |
| AKAW682 | 2026-09-04 23:55:58 | 49.99614 | 21.86643 | 94° | 77km/h | 2740m | -2.4m/s | 0°C | 0% | 0hPa | 0V | 00:00:00 | 00:00:00 | 00:00:00 | |
| AKAW682 | 2026-09-04 23:55:11 | 49.99586 | 21.85173 | 87° | 88km/h | 2838m | -1.7m/s | 0°C | 0% | 0hPa | 0V | 00:00:00 | 00:00:00 | 00:00:00 | |
| AKAW682 | 2026-09-04 23:54:38 | 49.99575 | 21.84126 | 91° | 86km/h | 2906m | -0.9m/s | 0°C | 0% | 0hPa | 0V | 00:00:00 | 00:00:00 | 00:00:00 | |
| AKAW68 | 2026-09-04 23:54:30 | 49.99574 | 21.83866 | 96° | 82km/h | 2923m | -0.5m/s | 0°C | 0% | 0hPa | 0V | 00:00:00 | 00:00:00 | 00:00:00 | |
| SQ9PSP-11 | 2026-09-04 23:54:26 | 49.99580 | 21.83730 | 90° | 88km/h | 2928m | -1.6m/s | 0°C | 0% | 0hPa | 0V | 00:00:00 | 00:00:00 | 00:00:00 | |
| SQ9PSP-11 | 2026-09-04 23:54:10 | 49.99576 | 21.83201 | 88° | 82km/h | 2959m | -0.9m/s | 0°C | 0% | 0hPa | 0V | 00:00:00 | 00:00:00 | 00:00:00 | |
| AKAW68 | 2026-09-04 23:54:09 | 49.99575 | 21.83169 | 90° | 78km/h | 2961m | -2.3m/s | 0°C | 0% | 0hPa | 0V | 00:00:00 | 00:00:00 | 00:00:00 | |
| MIELECB | 2026-09-04 23:54:06 | 49.99579 | 21.83075 | 96° | 84km/h | 2966m | -1.9m/s | 0°C | 0% | 0hPa | 0V | 00:00:00 | 00:00:00 | 00:00:00 | |
| MIELECB | 2026-09-04 23:53:59 | 49.99581 | 21.82837 | 87° | 80km/h | 2980m | -2.1m/s | 0°C | 0% | 0hPa | 0V | 00:00:00 | 00:00:00 | 00:00:00 | |
| SQ9PSP-11 | 2026-09-04 23:53:54 | 49.99583 | 21.82682 | 97° | 82km/h | 2990m | -1.4m/s | 0°C | 0% | 0hPa | 0V | 00:00:00 | 00:00:00 | 00:00:00 | |
| MIELECB | 2026-09-04 23:53:50 | 49.99589 | 21.82547 | 91° | 91km/h | 2996m | -2.4m/s | 0°C | 0% | 0hPa | 0V | 00:00:00 | 00:00:00 | 00:00:00 | |
| MIELECB | 2026-09-04 23:53:43 | 49.99586 | 21.82286 | 92° | 78km/h | 3013m | -2.4m/s | 0°C | 0% | 0hPa | 0V | 00:00:00 | 00:00:00 | 00:00:00 | |
| SQ9PSP-11 | 2026-09-04 23:53:38 | 49.99585 | 21.82163 | 89° | 82km/h | 3022m | -2.7m/s | 0°C | 0% | 0hPa | 0V | 00:00:00 | 00:00:00 | 00:00:00 | |
| MIELECB | 2026-09-04 23:53:33 | 49.99589 | 21.81997 | 95° | 86km/h | 3034m | -2.2m/s | 0°C | 0% | 0hPa | 0V | 00:00:00 | 00:00:00 | 00:00:00 | |
| AKAW68 | 2026-09-04 23:53:32 | 49.99590 | 21.81964 | 95° | 82km/h | 3036m | -1.2m/s | 0°C | 0% | 0hPa | 0V | 00:00:00 | 00:00:00 | 00:00:00 | |
| MIELECB | 2026-09-04 23:53:26 | 49.99598 | 21.81774 | 95° | 78km/h | 3048m | -0.8m/s | 0°C | 0% | 0hPa | 0V | 00:00:00 | 00:00:00 | 00:00:00 | |
| AKAW68 | 2026-09-04 23:53:08 | 49.99611 | 21.81197 | 89° | 88km/h | 3082m | -1.7m/s | 0°C | 0% | 0hPa | 0V | 00:00:00 | 00:00:00 | 00:00:00 | |
| MIELECB | 2026-09-04 23:53:00 | 49.99617 | 21.80925 | 91° | 91km/h | 3103m | 0.4m/s | 0°C | 0% | 0hPa | 0V | 00:00:00 | 00:00:00 | 00:00:00 | |
| AKAW68 | 2026-09-04 23:52:48 | 49.99623 | 21.80507 | 89° | 88km/h | 3124m | -1.4m/s | 0°C | 0% | 0hPa | 0V | 00:00:00 | 00:00:00 | 00:00:00 | |
| SQ9PSP-11 | 2026-09-04 23:52:45 | 49.99623 | 21.80404 | 93° | 89km/h | 3131m | -1.2m/s | 0°C | 0% | 0hPa | 0V | 00:00:00 | 00:00:00 | 00:00:00 | |
| MIELECB | 2026-09-04 23:52:43 | 49.99625 | 21.80331 | 92° | 97km/h | 3135m | -2.2m/s | 0°C | 0% | 0hPa | 0V | 00:00:00 | 00:00:00 | 00:00:00 | |
| AKAW682 | 2026-09-04 23:52:40 | 49.99625 | 21.80218 | 90° | 97km/h | 3143m | -2.5m/s | 0°C | 0% | 0hPa | 0V | 00:00:00 | 00:00:00 | 00:00:00 | |
| MIELECB | 2026-09-04 23:52:38 | 49.99623 | 21.80145 | 88° | 88km/h | 3148m | -1.4m/s | 0°C | 0% | 0hPa | 0V | 00:00:00 | 00:00:00 | 00:00:00 | |
| MIELECB | 2026-09-04 23:52:32 | 49.99628 | 21.79939 | 97° | 91km/h | 3160m | -1.3m/s | 0°C | 0% | 0hPa | 0V | 00:00:00 | 00:00:00 | 00:00:00 | |
| SQ9PSP-11 | 2026-09-04 23:52:29 | 49.99633 | 21.79830 | 93° | 95km/h | 3166m | -1.8m/s | 0°C | 0% | 0hPa | 0V | 00:00:00 | 00:00:00 | 00:00:00 | |
| AKAW68 | 2026-09-04 23:52:26 | 49.99633 | 21.79717 | 89° | 97km/h | 3173m | -1.9m/s | 0°C | 0% | 0hPa | 0V | 00:00:00 | 00:00:00 | 00:00:00 | |
| MIELECB | 2026-09-04 23:52:18 | 49.99635 | 21.79442 | 93° | 91km/h | 3192m | -2.0m/s | 0°C | 0% | 0hPa | 0V | 00:00:00 | 00:00:00 | 00:00:00 | |
| SQ9PSP-11 | 2026-09-04 23:52:14 | 49.99636 | 21.79292 | 91° | 99km/h | 3203m | -2.0m/s | 0°C | 0% | 0hPa | 0V | 00:00:00 | 00:00:00 | 00:00:00 | |
| AKAW682 | 2026-09-04 23:52:11 | 49.99638 | 21.79176 | 93° | 99km/h | 3209m | -1.6m/s | 0°C | 0% | 0hPa | 0V | 00:00:00 | 00:00:00 | 00:00:00 | |
| MIELECB | 2026-09-04 23:52:10 | 49.99640 | 21.79138 | 94° | 95km/h | 3210m | -1.1m/s | 0°C | 0% | 0hPa | 0V | 00:00:00 | 00:00:00 | 00:00:00 | |
| MIELECB | 2026-09-04 23:52:00 | 49.99655 | 21.78779 | 92° | 89km/h | 3237m | -2.5m/s | 0°C | 0% | 0hPa | 0V | 00:00:00 | 00:00:00 | 00:00:00 | |
| SQ9PSP-11 | 2026-09-04 23:51:59 | 49.99655 | 21.78744 | 92° | 88km/h | 3241m | -2.4m/s | 0°C | 0% | 0hPa | 0V | 00:00:00 | 00:00:00 | 00:00:00 | |
| AKAW68 | 2026-09-04 23:51:55 | 49.99658 | 21.78608 | 93° | 84km/h | 3248m | -1.7m/s | 0°C | 0% | 0hPa | 0V | 00:00:00 | 00:00:00 | 00:00:00 | |
| MIELECB | 2026-09-04 23:51:54 | 49.99660 | 21.78575 | 96° | 84km/h | 3249m | -0.4m/s | 0°C | 0% | 0hPa | 0V | 00:00:00 | 00:00:00 | 00:00:00 | |
| AKAW682 | 2026-09-04 23:51:51 | 49.99666 | 21.78470 | 96° | 93km/h | 3255m | -2.2m/s | 0°C | 0% | 0hPa | 0V | 00:00:00 | 00:00:00 | 00:00:00 | |
| MIELECB | 2026-09-04 23:51:48 | 49.99671 | 21.78359 | 94° | 97km/h | 3265m | -2.4m/s | 0°C | 0% | 0hPa | 0V | 00:00:00 | 00:00:00 | 00:00:00 | |
| SQ9PSP-11 | 2026-09-04 23:51:43 | 49.99681 | 21.78173 | 97° | 95km/h | 3278m | -2.1m/s | 0°C | 0% | 0hPa | 0V | 00:00:00 | 00:00:00 | 00:00:00 | |
| MIELECB | 2026-09-04 23:51:37 | 49.99694 | 21.77947 | 94° | 93km/h | 3293m | -2.1m/s | 0°C | 0% | 0hPa | 0V | 00:00:00 | 00:00:00 | 00:00:00 | |
| AKAW68 | 2026-09-04 23:51:34 | 49.99701 | 21.77840 | 98° | 89km/h | 3300m | -2.0m/s | 0°C | 0% | 0hPa | 0V | 00:00:00 | 00:00:00 | 00:00:00 | |
| AKAW682 | 2026-09-04 23:51:30 | 49.99713 | 21.77696 | 98° | 93km/h | 3308m | -0.9m/s | 0°C | 0% | 0hPa | 0V | 00:00:00 | 00:00:00 | 00:00:00 | |
| SQ9PSP-11 | 2026-09-04 23:51:26 | 49.99726 | 21.77552 | 99° | 97km/h | 3318m | -1.2m/s | 0°C | 0% | 0hPa | 0V | 00:00:00 | 00:00:00 | 00:00:00 | |
| MIELECB | 2026-09-04 23:51:15 | 49.99760 | 21.77134 | 99° | 100km/h | 3347m | -1.8m/s | 0°C | 0% | 0hPa | 0V | 00:00:00 | 00:00:00 | 00:00:00 | |
| AKAW68 | 2026-09-04 23:51:13 | 49.99766 | 21.77056 | 97° | 100km/h | 3352m | -0.9m/s | 0°C | 0% | 0hPa | 0V | 00:00:00 | 00:00:00 | 00:00:00 | |
| SQ9PSP-11 | 2026-09-04 23:51:10 | 49.99773 | 21.76943 | 96° | 89km/h | 3356m | -2.5m/s | 0°C | 0% | 0hPa | 0V | 00:00:00 | 00:00:00 | 00:00:00 | |
| AKAW682 | 2026-09-04 23:51:08 | 49.99779 | 21.76873 | 101° | 89km/h | 3361m | -0.4m/s | 0°C | 0% | 0hPa | 0V | 00:00:00 | 00:00:00 | 00:00:00 | |
| MIELECB | 2026-09-04 23:51:02 | 49.99797 | 21.76647 | 95° | 102km/h | 3375m | -2.2m/s | 0°C | 0% | 0hPa | 0V | 00:00:00 | 00:00:00 | 00:00:00 | |
| SQ9PSP-11 | 2026-09-04 23:50:54 | 49.99816 | 21.76344 | 102° | 99km/h | 3397m | -1.1m/s | 0°C | 0% | 0hPa | 0V | 00:00:00 | 00:00:00 | 00:00:00 | |
| AKAW68 | 2026-09-04 23:50:52 | 49.99825 | 21.76264 | 100° | 104km/h | 3399m | -1.9m/s | 0°C | 0% | 0hPa | 0V | 00:00:00 | 00:00:00 | 00:00:00 | |
| MIELECB | 2026-09-04 23:50:43 | 49.99853 | 21.75899 | 100° | 106km/h | 3421m | -3.0m/s | 0°C | 0% | 0hPa | 0V | 00:00:00 | 00:00:00 | 00:00:00 | |
| SQ9PSP-11 | 2026-09-04 23:50:38 | 49.99873 | 21.75697 | 98° | 104km/h | 3431m | -1.5m/s | 0°C | 0% | 0hPa | 0V | 00:00:00 | 00:00:00 | 00:00:00 | |
| MIELECB | 2026-09-04 23:50:37 | 49.99876 | 21.75658 | 98° | 99km/h | 3433m | -2.4m/s | 0°C | 0% | 0hPa | 0V | 00:00:00 | 00:00:00 | 00:00:00 | |
| MIELECB | 2026-09-04 23:50:31 | 49.99890 | 21.75430 | 96° | 106km/h | 3454m | -2.7m/s | 0°C | 0% | 0hPa | 0V | 00:00:00 | 00:00:00 | 00:00:00 | |
| SQ9EZE-14 | 2026-09-04 23:50:30 | 49.99893 | 21.75388 | 95° | 106km/h | 3457m | -2.6m/s | 0°C | 0% | 0hPa | 0V | 00:00:00 | 00:00:00 | 00:00:00 | |
| MIELECB | 2026-09-04 23:50:26 | 49.99899 | 21.75228 | 94° | 99km/h | 3468m | -1.6m/s | 0°C | 0% | 0hPa | 0V | 00:00:00 | 00:00:00 | 00:00:00 | |
| MIELECB | 2026-09-04 23:50:20 | 49.99917 | 21.74999 | 98° | 104km/h | 3488m | -2.0m/s | 0°C | 0% | 0hPa | 0V | 00:00:00 | 00:00:00 | 00:00:00 | |
| SQ9PSP-11 | 2026-09-04 23:50:19 | 49.99919 | 21.74959 | 95° | 104km/h | 3491m | -2.7m/s | 0°C | 0% | 0hPa | 0V | 00:00:00 | 00:00:00 | 00:00:00 | |
| AKAW68 | 2026-09-04 23:50:04 | 49.99950 | 21.74330 | 100° | 99km/h | 3538m | -1.2m/s | 0°C | 0% | 0hPa | 0V | 00:00:00 | 00:00:00 | 00:00:00 | |
| MIELECB | 2026-09-04 23:49:48 | 49.99976 | 21.73739 | 94° | 97km/h | 3577m | -3.3m/s | 0°C | 0% | 0hPa | 0V | 00:00:00 | 00:00:00 | 00:00:00 | |
| SQ9PSP-11 | 2026-09-04 23:49:45 | 49.99981 | 21.73619 | 93° | 106km/h | 3587m | -1.9m/s | 0°C | 0% | 0hPa | 0V | 00:00:00 | 00:00:00 | 00:00:00 | |
| MIELECB | 2026-09-04 23:49:43 | 49.99984 | 21.73495 | 94° | 104km/h | 3595m | -1.6m/s | 0°C | 0% | 0hPa | 0V | 00:00:00 | 00:00:00 | 00:00:00 | |
| AKAW68 | 2026-09-04 23:49:37 | 49.99991 | 21.73297 | 92° | 99km/h | 3611m | -1.5m/s | 0°C | 0% | 0hPa | 0V | 00:00:00 | 00:00:00 | 00:00:00 | |
| MIELECB | 2026-09-04 23:49:35 | 49.99992 | 21.73218 | 92° | 102km/h | 3615m | -2.0m/s | 0°C | 0% | 0hPa | 0V | 00:00:00 | 00:00:00 | 00:00:00 | |
| MIELECB | 2026-09-04 23:49:29 | 49.99996 | 21.72972 | 92° | 104km/h | 3633m | -2.4m/s | 0°C | 0% | 0hPa | 0V | 00:00:00 | 00:00:00 | 00:00:00 | |
| SQ9PSP-11 | 2026-09-04 23:49:26 | 49.99999 | 21.72850 | 93° | 100km/h | 3640m | -2.1m/s | 0°C | 0% | 0hPa | 0V | 00:00:00 | 00:00:00 | 00:00:00 | |
| MIELECB | 2026-09-04 23:49:24 | 50.00001 | 21.72773 | 92° | 97km/h | 3645m | -1.8m/s | 0°C | 0% | 0hPa | 0V | 00:00:00 | 00:00:00 | 00:00:00 | |
| MIELECB | 2026-09-04 23:49:18 | 50.00002 | 21.72539 | 91° | 100km/h | 3663m | -1.9m/s | 0°C | 0% | 0hPa | 0V | 00:00:00 | 00:00:00 | 00:00:00 | |
| AKAW68 | 2026-09-04 23:49:14 | 50.00002 | 21.72377 | 91° | 102km/h | 3675m | -2.2m/s | 0°C | 0% | 0hPa | 0V | 00:00:00 | 00:00:00 | 00:00:00 | |
| MIELECB | 2026-09-04 23:49:13 | 50.00003 | 21.72336 | 90° | 100km/h | 3678m | -3.3m/s | 0°C | 0% | 0hPa | 0V | 00:00:00 | 00:00:00 | 00:00:00 | |
| SQ9PSP-11 | 2026-09-04 23:49:09 | 49.99999 | 21.72182 | 90° | 99km/h | 3690m | -2.8m/s | 0°C | 0% | 0hPa | 0V | 00:00:00 | 00:00:00 | 00:00:00 | |
| MIELECB | 2026-09-04 23:49:07 | 49.99999 | 21.72105 | 92° | 100km/h | 3695m | -2.1m/s | 0°C | 0% | 0hPa | 0V | 00:00:00 | 00:00:00 | 00:00:00 | |
| MIELECB | 2026-09-04 23:49:01 | 50.00001 | 21.71867 | 90° | 102km/h | 3711m | -2.3m/s | 0°C | 0% | 0hPa | 0V | 00:00:00 | 00:00:00 | 00:00:00 | |
| AKAW682 | 2026-09-04 23:49:00 | 50.00001 | 21.71827 | 90° | 100km/h | 3714m | -2.2m/s | 0°C | 0% | 0hPa | 0V | 00:00:00 | 00:00:00 | 00:00:00 | |
| MIELECB | 2026-09-04 23:48:56 | 50.00000 | 21.71673 | 91° | 99km/h | 3725m | -2.0m/s | 0°C | 0% | 0hPa | 0V | 00:00:00 | 00:00:00 | 00:00:00 | |
| AKAW68 | 2026-09-04 23:48:54 | 50.00001 | 21.71594 | 92° | 102km/h | 3730m | -2.5m/s | 0°C | 0% | 0hPa | 0V | 00:00:00 | 00:00:00 | 00:00:00 | |
| MIELECB | 2026-09-04 23:48:51 | 50.00003 | 21.71476 | 91° | 100km/h | 3739m | -1.7m/s | 0°C | 0% | 0hPa | 0V | 00:00:00 | 00:00:00 | 00:00:00 | |
| MIELECB | 2026-09-04 23:48:45 | 50.00001 | 21.71236 | 90° | 102km/h | 3754m | -2.8m/s | 0°C | 0% | 0hPa | 0V | 00:00:00 | 00:00:00 | 00:00:00 | |
| MIELECB | 2026-09-04 23:48:39 | 50.00003 | 21.71000 | 93° | 100km/h | 3769m | -1.8m/s | 0°C | 0% | 0hPa | 0V | 00:00:00 | 00:00:00 | 00:00:00 | |
| SQ9PSP-11 | 2026-09-04 23:48:38 | 50.00005 | 21.70960 | 93° | 102km/h | 3771m | -1.4m/s | 0°C | 0% | 0hPa | 0V | 00:00:00 | 00:00:00 | 00:00:00 | |
| AKAW68 | 2026-09-04 23:48:33 | 50.00006 | 21.70760 | 90° | 99km/h | 3781m | -3.6m/s | 0°C | 0% | 0hPa | 0V | 00:00:00 | 00:00:00 | 00:00:00 | |
| MIELECB | 2026-09-04 23:48:28 | 50.00008 | 21.70564 | 94° | 100km/h | 3797m | -2.0m/s | 0°C | 0% | 0hPa | 0V | 00:00:00 | 00:00:00 | 00:00:00 | |
| SQ9PSP-11 | 2026-09-04 23:48:23 | 50.00012 | 21.70366 | 92° | 100km/h | 3808m | -1.9m/s | 0°C | 0% | 0hPa | 0V | 00:00:00 | 00:00:00 | 00:00:00 | |
| MIELECB | 2026-09-04 23:48:22 | 50.00012 | 21.70326 | 93° | 99km/h | 3810m | -1.6m/s | 0°C | 0% | 0hPa | 0V | 00:00:00 | 00:00:00 | 00:00:00 | |
| AKAW682 | 2026-09-04 23:48:18 | 50.00014 | 21.70169 | 94° | 100km/h | 3821m | -1.8m/s | 0°C | 0% | 0hPa | 0V | 00:00:00 | 00:00:00 | 00:00:00 | |
| MIELECB | 2026-09-04 23:48:17 | 50.00016 | 21.70130 | 95° | 102km/h | 3822m | -1.5m/s | 0°C | 0% | 0hPa | 0V | 00:00:00 | 00:00:00 | 00:00:00 | |
| AKAW68 | 2026-09-04 23:48:13 | 50.00023 | 21.69970 | 94° | 102km/h | 3833m | -2.5m/s | 0°C | 0% | 0hPa | 0V | 00:00:00 | 00:00:00 | 00:00:00 | |
| MIELECB | 2026-09-04 23:48:11 | 50.00026 | 21.69889 | 94° | 102km/h | 3839m | -2.7m/s | 0°C | 0% | 0hPa | 0V | 00:00:00 | 00:00:00 | 00:00:00 | |
| SQ9PSP-11 | 2026-09-04 23:48:08 | 50.00030 | 21.69770 | 94° | 99km/h | 3848m | -2.1m/s | 0°C | 0% | 0hPa | 0V | 00:00:00 | 00:00:00 | 00:00:00 | |
| MIELECB | 2026-09-04 23:48:06 | 50.00032 | 21.69691 | 94° | 104km/h | 3852m | -1.9m/s | 0°C | 0% | 0hPa | 0V | 00:00:00 | 00:00:00 | 00:00:00 | |
| MIELECB | 2026-09-04 23:48:00 | 50.00041 | 21.69449 | 93° | 100km/h | 3867m | -1.6m/s | 0°C | 0% | 0hPa | 0V | 00:00:00 | 00:00:00 | 00:00:00 | |
| AKAW682 | 2026-09-04 23:47:57 | 50.00045 | 21.69330 | 93° | 104km/h | 3875m | -0.8m/s | 0°C | 0% | 0hPa | 0V | 00:00:00 | 00:00:00 | 00:00:00 | |
| MIELECB | 2026-09-04 23:47:54 | 50.00050 | 21.69209 | 93° | 102km/h | 3881m | -1.9m/s | 0°C | 0% | 0hPa | 0V | 00:00:00 | 00:00:00 | 00:00:00 | |
| AKAW68 | 2026-09-04 23:47:52 | 50.00054 | 21.69128 | 94° | 100km/h | 3885m | -3.0m/s | 0°C | 0% | 0hPa | 0V | 00:00:00 | 00:00:00 | 00:00:00 | |
| MIELECB | 2026-09-04 23:47:48 | 50.00059 | 21.68968 | 93° | 102km/h | 3896m | -3.3m/s | 0°C | 0% | 0hPa | 0V | 00:00:00 | 00:00:00 | 00:00:00 | |
| MIELECB | 2026-09-04 23:47:40 | 50.00070 | 21.68649 | 94° | 100km/h | 3915m | -1.6m/s | 0°C | 0% | 0hPa | 0V | 00:00:00 | 00:00:00 | 00:00:00 | |
| SQ9PSP-11 | 2026-09-04 23:47:37 | 50.00075 | 21.68529 | 94° | 104km/h | 3921m | -1.7m/s | 0°C | 0% | 0hPa | 0V | 00:00:00 | 00:00:00 | 00:00:00 | |
| AKAW682 | 2026-09-04 23:47:36 | 50.00076 | 21.68488 | 94° | 104km/h | 3924m | -1.7m/s | 0°C | 0% | 0hPa | 0V | 00:00:00 | 00:00:00 | 00:00:00 | |
| MIELECB | 2026-09-04 23:47:34 | 50.00079 | 21.68408 | 94° | 102km/h | 3927m | -2.5m/s | 0°C | 0% | 0hPa | 0V | 00:00:00 | 00:00:00 | 00:00:00 | |
| AKAW68 | 2026-09-04 23:47:32 | 50.00081 | 21.68327 | 93° | 100km/h | 3933m | -2.6m/s | 0°C | 0% | 0hPa | 0V | 00:00:00 | 00:00:00 | 00:00:00 | |
| MIELECB | 2026-09-04 23:47:29 | 50.00085 | 21.68206 | 95° | 106km/h | 3942m | -1.6m/s | 0°C | 0% | 0hPa | 0V | 00:00:00 | 00:00:00 | 00:00:00 | |
| MIELECB | 2026-09-04 23:47:23 | 50.00097 | 21.67962 | 92° | 102km/h | 3956m | -2.4m/s | 0°C | 0% | 0hPa | 0V | 00:00:00 | 00:00:00 | 00:00:00 | |
| SQ9PSP-11 | 2026-09-04 23:47:22 | 50.00097 | 21.67921 | 93° | 104km/h | 3959m | -2.2m/s | 0°C | 0% | 0hPa | 0V | 00:00:00 | 00:00:00 | 00:00:00 | |
| MIELECB | 2026-09-04 23:47:17 | 50.00105 | 21.67716 | 93° | 106km/h | 3969m | -2.0m/s | 0°C | 0% | 0hPa | 0V | 00:00:00 | 00:00:00 | 00:00:00 | |
| AKAW682 | 2026-09-04 23:47:16 | 50.00106 | 21.67675 | 94° | 106km/h | 3972m | -2.1m/s | 0°C | 0% | 0hPa | 0V | 00:00:00 | 00:00:00 | 00:00:00 | |
| MIELECB | 2026-09-04 23:47:12 | 50.00113 | 21.67513 | 94° | 102km/h | 3982m | -2.0m/s | 0°C | 0% | 0hPa | 0V | 00:00:00 | 00:00:00 | 00:00:00 | |
| AKAW68 | 2026-09-04 23:47:11 | 50.00114 | 21.67473 | 93° | 104km/h | 3984m | -1.1m/s | 0°C | 0% | 0hPa | 0V | 00:00:00 | 00:00:00 | 00:00:00 | |
| SQ9PSP-11 | 2026-09-04 23:47:06 | 50.00122 | 21.67265 | 95° | 102km/h | 3993m | -1.0m/s | 0°C | 0% | 0hPa | 0V | 00:00:00 | 00:00:00 | 00:00:00 | |
| MIELECB | 2026-09-04 23:47:05 | 50.00124 | 21.67225 | 95° | 100km/h | 3995m | -1.7m/s | 0°C | 0% | 0hPa | 0V | 00:00:00 | 00:00:00 | 00:00:00 | |
| MIELECB | 2026-09-04 23:47:00 | 50.00133 | 21.67016 | 95° | 110km/h | 4005m | -2.0m/s | 0°C | 0% | 0hPa | 0V | 00:00:00 | 00:00:00 | 00:00:00 | |
| AKAW682 | 2026-09-04 23:46:55 | 50.00140 | 21.66810 | 94° | 106km/h | 4019m | -0.6m/s | 0°C | 0% | 0hPa | 0V | 00:00:00 | 00:00:00 | 00:00:00 | |
| MIELECB | 2026-09-04 23:46:54 | 50.00141 | 21.66768 | 95° | 110km/h | 4021m | -1.4m/s | 0°C | 0% | 0hPa | 0V | 00:00:00 | 00:00:00 | 00:00:00 | |
| AKAW68 | 2026-09-04 23:46:51 | 50.00147 | 21.66641 | 96° | 108km/h | 4028m | -2.6m/s | 0°C | 0% | 0hPa | 0V | 00:00:00 | 00:00:00 | 00:00:00 | |
| MIELECB | 2026-09-04 23:46:46 | 50.00156 | 21.66431 | 94° | 106km/h | 4042m | -1.9m/s | 0°C | 0% | 0hPa | 0V | 00:00:00 | 00:00:00 | 00:00:00 | |
| SQ9PSP-11 | 2026-09-04 23:46:42 | 50.00164 | 21.66266 | 95° | 106km/h | 4053m | -1.8m/s | 0°C | 0% | 0hPa | 0V | 00:00:00 | 00:00:00 | 00:00:00 | |
| MIELECB | 2026-09-04 23:46:40 | 50.00168 | 21.66182 | 95° | 111km/h | 4058m | -1.6m/s | 0°C | 0% | 0hPa | 0V | 00:00:00 | 00:00:00 | 00:00:00 | |
| AKAW682 | 2026-09-04 23:46:35 | 50.00180 | 21.65934 | 95° | 104km/h | 4071m | -1.2m/s | 0°C | 0% | 0hPa | 0V | 00:00:00 | 00:00:00 | 00:00:00 | |
| MIELECB | 2026-09-04 23:46:34 | 50.00180 | 21.65934 | 95° | 104km/h | 4071m | -1.2m/s | 0°C | 0% | 0hPa | 0V | 00:00:00 | 00:00:00 | 00:00:00 | |
| AKAW68 | 2026-09-04 23:46:30 | 50.00188 | 21.65763 | 95° | 106km/h | 4080m | -1.9m/s | 0°C | 0% | 0hPa | 0V | 00:00:00 | 00:00:00 | 00:00:00 | |
| MIELECB | 2026-09-04 23:46:29 | 50.00190 | 21.65722 | 95° | 104km/h | 4082m | -2.0m/s | 0°C | 0% | 0hPa | 0V | 00:00:00 | 00:00:00 | 00:00:00 | |
| SQ9PSP-11 | 2026-09-04 23:46:26 | 50.00196 | 21.65600 | 95° | 106km/h | 4090m | -1.1m/s | 0°C | 0% | 0hPa | 0V | 00:00:00 | 00:00:00 | 00:00:00 | |
| MIELECB | 2026-09-04 23:46:24 | 50.00199 | 21.65515 | 93° | 108km/h | 4094m | -1.5m/s | 0°C | 0% | 0hPa | 0V | 00:00:00 | 00:00:00 | 00:00:00 | |
| MIELECB | 2026-09-04 23:46:19 | 50.00206 | 21.65305 | 95° | 108km/h | 4106m | -1.4m/s | 0°C | 0% | 0hPa | 0V | 00:00:00 | 00:00:00 | 00:00:00 | |
| AKAW682 | 2026-09-04 23:46:13 | 50.00220 | 21.65052 | 95° | 102km/h | 4117m | -1.3m/s | 0°C | 0% | 0hPa | 0V | 00:00:00 | 00:00:00 | 00:00:00 | |
| MIELECB | 2026-09-04 23:46:12 | 50.00221 | 21.65012 | 94° | 106km/h | 4119m | -1.9m/s | 0°C | 0% | 0hPa | 0V | 00:00:00 | 00:00:00 | 00:00:00 | |
| AKAW68 | 2026-09-04 23:46:10 | 50.00224 | 21.64926 | 93° | 111km/h | 4122m | -1.4m/s | 0°C | 0% | 0hPa | 0V | 00:00:00 | 00:00:00 | 00:00:00 | |
| MIELECB | 2026-09-04 23:46:06 | 50.00232 | 21.64757 | 96° | 106km/h | 4130m | -1.5m/s | 0°C | 0% | 0hPa | 0V | 00:00:00 | 00:00:00 | 00:00:00 | |
| SQ9PSP-11 | 2026-09-04 23:46:04 | 50.00236 | 21.64675 | 95° | 108km/h | 4135m | -1.1m/s | 0°C | 0% | 0hPa | 0V | 00:00:00 | 00:00:00 | 00:00:00 | |
| MIELECB | 2026-09-04 23:45:59 | 50.00246 | 21.64462 | 97° | 106km/h | 4145m | -1.4m/s | 0°C | 0% | 0hPa | 0V | 00:00:00 | 00:00:00 | 00:00:00 | |
| MIELECB | 2026-09-04 23:45:53 | 50.00257 | 21.64208 | 95° | 110km/h | 4155m | -1.9m/s | 0°C | 0% | 0hPa | 0V | 00:00:00 | 00:00:00 | 00:00:00 | |
| AKAW68 | 2026-09-04 23:45:49 | 50.00267 | 21.64042 | 95° | 106km/h | 4163m | -1.5m/s | 0°C | 0% | 0hPa | 0V | 00:00:00 | 00:00:00 | 00:00:00 | |
| SQ9PSP-11 | 2026-09-04 23:45:48 | 50.00268 | 21.63999 | 94° | 110km/h | 4164m | -1.8m/s | 0°C | 0% | 0hPa | 0V | 00:00:00 | 00:00:00 | 00:00:00 | |
| MIELECB | 2026-09-04 23:45:44 | 50.00277 | 21.63828 | 97° | 108km/h | 4173m | -1.5m/s | 0°C | 0% | 0hPa | 0V | 00:00:00 | 00:00:00 | 00:00:00 | |
| MIELECB | 2026-09-04 23:45:39 | 50.00287 | 21.63618 | 93° | 110km/h | 4184m | -2.3m/s | 0°C | 0% | 0hPa | 0V | 00:00:00 | 00:00:00 | 00:00:00 | |
| MIELECB | 2026-09-04 23:45:33 | 50.00303 | 21.63360 | 95° | 104km/h | 4197m | -1.1m/s | 0°C | 0% | 0hPa | 0V | 00:00:00 | 00:00:00 | 00:00:00 | |
| SQ9PSP-11 | 2026-09-04 23:45:32 | 50.00305 | 21.63319 | 94° | 106km/h | 4199m | -2.1m/s | 0°C | 0% | 0hPa | 0V | 00:00:00 | 00:00:00 | 00:00:00 | |
| AKAW68 | 2026-09-04 23:45:28 | 50.00312 | 21.63145 | 96° | 113km/h | 4206m | -1.4m/s | 0°C | 0% | 0hPa | 0V | 00:00:00 | 00:00:00 | 00:00:00 | |
| SQ9EZE-12 | 2026-09-04 23:45:26 | 50.00318 | 21.63058 | 97° | 106km/h | 4210m | -1.1m/s | 0°C | 0% | 0hPa | 0V | 00:00:00 | 00:00:00 | 00:00:00 | |
| MIELECB | 2026-09-04 23:45:22 | 50.00328 | 21.62890 | 96° | 111km/h | 4217m | -0.9m/s | 0°C | 0% | 0hPa | 0V | 00:00:00 | 00:00:00 | 00:00:00 | |
| MIELECB | 2026-09-04 23:45:15 | 50.00343 | 21.62585 | 96° | 111km/h | 4232m | -1.8m/s | 0°C | 0% | 0hPa | 0V | 00:00:00 | 00:00:00 | 00:00:00 | |
| AKAW682 | 2026-09-04 23:45:11 | 50.00353 | 21.62411 | 94° | 110km/h | 4238m | -2.0m/s | 0°C | 0% | 0hPa | 0V | 00:00:00 | 00:00:00 | 00:00:00 | |
| MIELECB | 2026-09-04 23:45:09 | 50.00359 | 21.62238 | 96° | 111km/h | 4247m | -1.1m/s | 0°C | 0% | 0hPa | 0V | 00:00:00 | 00:00:00 | 00:00:00 | |
| SQ9PSP-11 | 2026-09-04 23:45:01 | 50.00370 | 21.61979 | 94° | 110km/h | 4259m | -2.1m/s | 0°C | 0% | 0hPa | 0V | 00:00:00 | 00:00:00 | 00:00:00 | |
| MIELECB | 2026-09-04 23:44:56 | 50.00380 | 21.61763 | 95° | 110km/h | 4268m | -1.4m/s | 0°C | 0% | 0hPa | 0V | 00:00:00 | 00:00:00 | 00:00:00 | |
| AKAW682 | 2026-09-04 23:44:51 | 50.00388 | 21.61547 | 94° | 108km/h | 4278m | -1.2m/s | 0°C | 0% | 0hPa | 0V | 00:00:00 | 00:00:00 | 00:00:00 | |
| AKAW68 | 2026-09-04 23:44:46 | 50.00394 | 21.61332 | 94° | 110km/h | 4287m | -1.7m/s | 0°C | 0% | 0hPa | 0V | 00:00:00 | 00:00:00 | 00:00:00 | |
| SQ9PSP-11 | 2026-09-04 23:44:45 | 50.00395 | 21.61289 | 93° | 108km/h | 4289m | -1.6m/s | 0°C | 0% | 0hPa | 0V | 00:00:00 | 00:00:00 | 00:00:00 | |
| MIELECB | 2026-09-04 23:44:44 | 50.00396 | 21.61246 | 93° | 108km/h | 4291m | -0.7m/s | 0°C | 0% | 0hPa | 0V | 00:00:00 | 00:00:00 | 00:00:00 | |
| MIELECB | 2026-09-04 23:44:39 | 50.00402 | 21.61031 | 94° | 113km/h | 4300m | -1.5m/s | 0°C | 0% | 0hPa | 0V | 00:00:00 | 00:00:00 | 00:00:00 | |
| MIELECB | 2026-09-04 23:44:33 | 50.00407 | 21.60775 | 95° | 111km/h | 4312m | -0.7m/s | 0°C | 0% | 0hPa | 0V | 00:00:00 | 00:00:00 | 00:00:00 | |
| SQ9PSP-11 | 2026-09-04 23:44:30 | 50.00412 | 21.60643 | 92° | 111km/h | 4317m | -1.8m/s | 0°C | 0% | 0hPa | 0V | 00:00:00 | 00:00:00 | 00:00:00 | |
| SQ9EZE-12 | 2026-09-04 23:44:28 | 50.00413 | 21.60558 | 92° | 106km/h | 4322m | -1.4m/s | 0°C | 0% | 0hPa | 0V | 00:00:00 | 00:00:00 | 00:00:00 | |
| MIELECB | 2026-09-04 23:44:26 | 50.00415 | 21.60475 | 94° | 108km/h | 4326m | -1.1m/s | 0°C | 0% | 0hPa | 0V | 00:00:00 | 00:00:00 | 00:00:00 | |
| AKAW68 | 2026-09-04 23:44:25 | 50.00417 | 21.60432 | 93° | 111km/h | 4327m | -0.2m/s | 0°C | 0% | 0hPa | 0V | 00:00:00 | 00:00:00 | 00:00:00 | |
| SQ9PSP-11 | 2026-09-04 23:44:11 | 50.00431 | 21.59836 | 93° | 106km/h | 4349m | -2.5m/s | 0°C | 0% | 0hPa | 0V | 00:00:00 | 00:00:00 | 00:00:00 | |
| AKAW682 | 2026-09-04 23:44:10 | 50.00432 | 21.59795 | 94° | 108km/h | 4350m | -1.0m/s | 0°C | 0% | 0hPa | 0V | 00:00:00 | 00:00:00 | 00:00:00 | |
| SQ9EZE-12 | 2026-09-04 23:44:06 | 50.00436 | 21.59625 | 92° | 106km/h | 4355m | -2.0m/s | 0°C | 0% | 0hPa | 0V | 00:00:00 | 00:00:00 | 00:00:00 | |
| MIELECB | 2026-09-04 23:44:05 | 50.00438 | 21.59542 | 94° | 104km/h | 4359m | -1.5m/s | 0°C | 0% | 0hPa | 0V | 00:00:00 | 00:00:00 | 00:00:00 | |
| MIELECB | 2026-09-04 23:43:59 | 50.00445 | 21.59330 | 93° | 108km/h | 4367m | -1.6m/s | 0°C | 0% | 0hPa | 0V | 00:00:00 | 00:00:00 | 00:00:00 | |
| SQ9PSP-11 | 2026-09-04 23:43:56 | 50.00449 | 21.59206 | 95° | 106km/h | 4373m | -1.7m/s | 0°C | 0% | 0hPa | 0V | 00:00:00 | 00:00:00 | 00:00:00 | |
| MIELECB | 2026-09-04 23:43:53 | 50.00455 | 21.59078 | 95° | 111km/h | 4378m | -1.3m/s | 0°C | 0% | 0hPa | 0V | 00:00:00 | 00:00:00 | 00:00:00 | |
| AKAW682 | 2026-09-04 23:43:50 | 50.00458 | 21.58950 | 93° | 104km/h | 4384m | -1.9m/s | 0°C | 0% | 0hPa | 0V | 00:00:00 | 00:00:00 | 00:00:00 | |
| SQ9EZE-12 | 2026-09-04 23:43:49 | 50.00459 | 21.58909 | 94° | 102km/h | 4387m | -1.9m/s | 0°C | 0% | 0hPa | 0V | 00:00:00 | 00:00:00 | 00:00:00 | |
| MIELECB | 2026-09-04 23:43:47 | 50.00463 | 21.58827 | 96° | 108km/h | 4391m | -1.4m/s | 0°C | 0% | 0hPa | 0V | 00:00:00 | 00:00:00 | 00:00:00 | |
| AKAW68 | 2026-09-04 23:43:44 | 50.00470 | 21.58699 | 94° | 110km/h | 4393m | -1.5m/s | 0°C | 0% | 0hPa | 0V | 00:00:00 | 00:00:00 | 00:00:00 | |
| MIELECB | 2026-09-04 23:43:42 | 50.00472 | 21.58615 | 93° | 106km/h | 4397m | -2.5m/s | 0°C | 0% | 0hPa | 0V | 00:00:00 | 00:00:00 | 00:00:00 | |
| SQ9PSP-11 | 2026-09-04 23:43:41 | 50.00473 | 21.58574 | 95° | 104km/h | 4400m | -1.2m/s | 0°C | 0% | 0hPa | 0V | 00:00:00 | 00:00:00 | 00:00:00 | |
| MIELECB | 2026-09-04 23:43:36 | 50.00482 | 21.58365 | 95° | 108km/h | 4408m | -0.1m/s | 0°C | 0% | 0hPa | 0V | 00:00:00 | 00:00:00 | 00:00:00 | |
| AKAW682 | 2026-09-04 23:43:29 | 50.00495 | 21.58069 | 95° | 106km/h | 4419m | -1.3m/s | 0°C | 0% | 0hPa | 0V | 00:00:00 | 00:00:00 | 00:00:00 | |
| MIELECB | 2026-09-04 23:43:28 | 50.00497 | 21.58028 | 96° | 106km/h | 4420m | -1.1m/s | 0°C | 0% | 0hPa | 0V | 00:00:00 | 00:00:00 | 00:00:00 | |
| SQ9PSP-11 | 2026-09-04 23:43:25 | 50.00505 | 21.57902 | 95° | 110km/h | 4424m | -1.9m/s | 0°C | 0% | 0hPa | 0V | 00:00:00 | 00:00:00 | 00:00:00 | |
| AKAW68 | 2026-09-04 23:43:24 | 50.00507 | 21.57859 | 94° | 108km/h | 4425m | -1.0m/s | 0°C | 0% | 0hPa | 0V | 00:00:00 | 00:00:00 | 00:00:00 | |
| MIELECB | 2026-09-04 23:43:22 | 50.00510 | 21.57775 | 94° | 106km/h | 4429m | -1.2m/s | 0°C | 0% | 0hPa | 0V | 00:00:00 | 00:00:00 | 00:00:00 | |
| MIELECB | 2026-09-04 23:43:13 | 50.00526 | 21.57395 | 94° | 106km/h | 4444m | -1.4m/s | 0°C | 0% | 0hPa | 0V | 00:00:00 | 00:00:00 | 00:00:00 | |
| SQ9PSP-11 | 2026-09-04 23:43:09 | 50.00536 | 21.57225 | 95° | 110km/h | 4446m | -0.9m/s | 0°C | 0% | 0hPa | 0V | 00:00:00 | 00:00:00 | 00:00:00 | |
| AKAW68 | 2026-09-04 23:43:03 | 50.00547 | 21.56972 | 95° | 108km/h | 4459m | -2.0m/s | 0°C | 0% | 0hPa | 0V | 00:00:00 | 00:00:00 | 00:00:00 | |
| MIELECB | 2026-09-04 23:43:00 | 50.00552 | 21.56845 | 95° | 108km/h | 4465m | -0.9m/s | 0°C | 0% | 0hPa | 0V | 00:00:00 | 00:00:00 | 00:00:00 | |
| MIELECB | 2026-09-04 23:42:54 | 50.00563 | 21.56586 | 93° | 108km/h | 4472m | -1.6m/s | 0°C | 0% | 0hPa | 0V | 00:00:00 | 00:00:00 | 00:00:00 | |
| SQ9PSP-11 | 2026-09-04 23:42:53 | 50.00564 | 21.56545 | 95° | 104km/h | 4474m | -1.4m/s | 0°C | 0% | 0hPa | 0V | 00:00:00 | 00:00:00 | 00:00:00 | |
| AKAW682 | 2026-09-04 23:42:48 | 50.00574 | 21.56334 | 94° | 113km/h | 4480m | -1.0m/s | 0°C | 0% | 0hPa | 0V | 00:00:00 | 00:00:00 | 00:00:00 | |
| AKAW68 | 2026-09-04 23:42:43 | 50.00582 | 21.56117 | 94° | 108km/h | 4488m | -1.4m/s | 0°C | 0% | 0hPa | 0V | 00:00:00 | 00:00:00 | 00:00:00 | |
| SQ9PSP-11 | 2026-09-04 23:42:37 | 50.00595 | 21.55861 | 96° | 108km/h | 4496m | -1.0m/s | 0°C | 0% | 0hPa | 0V | 00:00:00 | 00:00:00 | 00:00:00 | |
| MIELECB | 2026-09-04 23:42:35 | 50.00599 | 21.55775 | 95° | 110km/h | 4500m | -2.1m/s | 0°C | 0% | 0hPa | 0V | 00:00:00 | 00:00:00 | 00:00:00 | |
| MIELECB | 2026-09-04 23:42:29 | 50.00610 | 21.55518 | 96° | 110km/h | 4507m | -1.6m/s | 0°C | 0% | 0hPa | 0V | 00:00:00 | 00:00:00 | 00:00:00 | |
| AKAW682 | 2026-09-04 23:42:27 | 50.00615 | 21.55433 | 96° | 108km/h | 4511m | -1.2m/s | 0°C | 0% | 0hPa | 0V | 00:00:00 | 00:00:00 | 00:00:00 | |
| MIELECB | 2026-09-04 23:42:24 | 50.00621 | 21.55304 | 95° | 110km/h | 4514m | -1.1m/s | 0°C | 0% | 0hPa | 0V | 00:00:00 | 00:00:00 | 00:00:00 | |
| SQ9PSP-11 | 2026-09-04 23:42:22 | 50.00624 | 21.55219 | 95° | 108km/h | 4516m | -1.5m/s | 0°C | 0% | 0hPa | 0V | 00:00:00 | 00:00:00 | 00:00:00 | |
| SQ9EZE-12 | 2026-09-04 23:42:20 | 50.00629 | 21.55133 | 95° | 108km/h | 4519m | -2.0m/s | 0°C | 0% | 0hPa | 0V | 00:00:00 | 00:00:00 | 00:00:00 | |
| MIELECB | 2026-09-04 23:42:18 | 50.00633 | 21.55047 | 96° | 110km/h | 4522m | -0.8m/s | 0°C | 0% | 0hPa | 0V | 00:00:00 | 00:00:00 | 00:00:00 | |
| MIELECB | 2026-09-04 23:42:09 | 50.00653 | 21.54661 | 96° | 108km/h | 4537m | -0.8m/s | 0°C | 0% | 0hPa | 0V | 00:00:00 | 00:00:00 | 00:00:00 | |
| AKAW682 | 2026-09-04 23:42:07 | 50.00658 | 21.54575 | 97° | 110km/h | 4540m | -1.4m/s | 0°C | 0% | 0hPa | 0V | 00:00:00 | 00:00:00 | 00:00:00 | |
| SQ9PSP-11 | 2026-09-04 23:42:06 | 50.00661 | 21.54533 | 97° | 110km/h | 4541m | -1.1m/s | 0°C | 0% | 0hPa | 0V | 00:00:00 | 00:00:00 | 00:00:00 | |
| MIELECB | 2026-09-04 23:42:04 | 50.00669 | 21.54402 | 95° | 111km/h | 4544m | -2.0m/s | 0°C | 0% | 0hPa | 0V | 00:00:00 | 00:00:00 | 00:00:00 | |
| AKAW68 | 2026-09-04 23:42:02 | 50.00671 | 21.54358 | 95° | 108km/h | 4546m | -1.3m/s | 0°C | 0% | 0hPa | 0V | 00:00:00 | 00:00:00 | 00:00:00 | |
| MIELECB | 2026-09-04 23:41:56 | 50.00685 | 21.54098 | 95° | 113km/h | 4553m | -1.4m/s | 0°C | 0% | 0hPa | 0V | 00:00:00 | 00:00:00 | 00:00:00 | |
| SQ9EZE-12 | 2026-09-04 23:41:52 | 50.00691 | 21.53923 | 95° | 106km/h | 4558m | -1.3m/s | 0°C | 0% | 0hPa | 0V | 00:00:00 | 00:00:00 | 00:00:00 | |
| SQ9PSP-11 | 2026-09-04 23:41:51 | 50.00693 | 21.53881 | 96° | 110km/h | 4559m | -1.7m/s | 0°C | 0% | 0hPa | 0V | 00:00:00 | 00:00:00 | 00:00:00 | |
| MIELECB | 2026-09-04 23:41:49 | 50.00699 | 21.53794 | 97° | 115km/h | 4561m | -1.2m/s | 0°C | 0% | 0hPa | 0V | 00:00:00 | 00:00:00 | 00:00:00 | |
| AKAW682 | 2026-09-04 23:41:46 | 50.00706 | 21.53659 | 94° | 113km/h | 4565m | -1.8m/s | 0°C | 0% | 0hPa | 0V | 00:00:00 | 00:00:00 | 00:00:00 | |
| AKAW68 | 2026-09-04 23:41:41 | 50.00715 | 21.53440 | 96° | 111km/h | 4574m | -1.4m/s | 0°C | 0% | 0hPa | 0V | 00:00:00 | 00:00:00 | 00:00:00 | |
| MIELECB | 2026-09-04 23:41:35 | 50.00727 | 21.53171 | 93° | 111km/h | 4583m | -0.9m/s | 0°C | 0% | 0hPa | 0V | 00:00:00 | 00:00:00 | 00:00:00 | |
| SQ9EZE-12 | 2026-09-04 23:41:27 | 50.00743 | 21.52816 | 94° | 111km/h | 4592m | -0.7m/s | 0°C | 0% | 0hPa | 0V | 00:00:00 | 00:00:00 | 00:00:00 | |
| AKAW682 | 2026-09-04 23:41:25 | 50.00746 | 21.52728 | 95° | 111km/h | 4595m | -0.8m/s | 0°C | 0% | 0hPa | 0V | 00:00:00 | 00:00:00 | 00:00:00 | |
| MIELECB | 2026-09-04 23:41:22 | 50.00753 | 21.52593 | 95° | 117km/h | 4598m | -1.1m/s | 0°C | 0% | 0hPa | 0V | 00:00:00 | 00:00:00 | 00:00:00 | |
| SQ9PSP-11 | 2026-09-04 23:41:20 | 50.00757 | 21.52503 | 95° | 117km/h | 4600m | -0.5m/s | 0°C | 0% | 0hPa | 0V | 00:00:00 | 00:00:00 | 00:00:00 | |
| MIELECB | 2026-09-04 23:41:16 | 50.00763 | 21.52322 | 94° | 111km/h | 4603m | -1.4m/s | 0°C | 0% | 0hPa | 0V | 00:00:00 | 00:00:00 | 00:00:00 | |
| MIELECB | 2026-09-04 23:41:11 | 50.00773 | 21.52101 | 94° | 119km/h | 4611m | -1.3m/s | 0°C | 0% | 0hPa | 0V | 00:00:00 | 00:00:00 | 00:00:00 | |
| SQ9EZE-12 | 2026-09-04 23:41:06 | 50.00781 | 21.51876 | 96° | 110km/h | 4618m | -1.4m/s | 0°C | 0% | 0hPa | 0V | 00:00:00 | 00:00:00 | 00:00:00 | |
| AKAW682 | 2026-09-04 23:41:05 | 50.00784 | 21.51833 | 97° | 113km/h | 4619m | -1.5m/s | 0°C | 0% | 0hPa | 0V | 00:00:00 | 00:00:00 | 00:00:00 | |
| SQ9PSP-11 | 2026-09-04 23:41:04 | 50.00786 | 21.51788 | 96° | 115km/h | 4621m | -1.1m/s | 0°C | 0% | 0hPa | 0V | 00:00:00 | 00:00:00 | 00:00:00 | |
| MIELECB | 2026-09-04 23:41:03 | 50.00789 | 21.51743 | 95° | 119km/h | 4622m | -1.0m/s | 0°C | 0% | 0hPa | 0V | 00:00:00 | 00:00:00 | 00:00:00 | |
| AKAW68 | 2026-09-04 23:41:00 | 50.00793 | 21.51606 | 93° | 113km/h | 4627m | -1.1m/s | 0°C | 0% | 0hPa | 0V | 00:00:00 | 00:00:00 | 00:00:00 | |
| MIELECB | 2026-09-04 23:40:57 | 50.00798 | 21.51475 | 96° | 113km/h | 4630m | -0.4m/s | 0°C | 0% | 0hPa | 0V | 00:00:00 | 00:00:00 | 00:00:00 | |
| SQ9EZE-12 | 2026-09-04 23:40:51 | 50.00810 | 21.51202 | 94° | 111km/h | 4639m | -0.8m/s | 0°C | 0% | 0hPa | 0V | 00:00:00 | 00:00:00 | 00:00:00 | |
| SQ9PSP-11 | 2026-09-04 23:40:48 | 50.00817 | 21.51071 | 97° | 115km/h | 4642m | -0.4m/s | 0°C | 0% | 0hPa | 0V | 00:00:00 | 00:00:00 | 00:00:00 | |
| MIELECB | 2026-09-04 23:40:46 | 50.00823 | 21.50980 | 95° | 119km/h | 4643m | -1.1m/s | 0°C | 0% | 0hPa | 0V | 00:00:00 | 00:00:00 | 00:00:00 | |
| AKAW682 | 2026-09-04 23:40:44 | 50.00827 | 21.50888 | 94° | 115km/h | 4646m | -1.5m/s | 0°C | 0% | 0hPa | 0V | 00:00:00 | 00:00:00 | 00:00:00 | |
| AKAW68 | 2026-09-04 23:40:39 | 50.00836 | 21.50667 | 96° | 115km/h | 4651m | -1.4m/s | 0°C | 0% | 0hPa | 0V | 00:00:00 | 00:00:00 | 00:00:00 | |
| SQ9EZE-12 | 2026-09-04 23:40:34 | 50.00847 | 21.50443 | 95° | 111km/h | 4659m | -1.6m/s | 0°C | 0% | 0hPa | 0V | 00:00:00 | 00:00:00 | 00:00:00 | |
| MIELECB | 2026-09-04 23:40:33 | 50.00850 | 21.50399 | 96° | 111km/h | 4659m | -1.5m/s | 0°C | 0% | 0hPa | 0V | 00:00:00 | 00:00:00 | 00:00:00 | |
| MIELECB | 2026-09-04 23:40:27 | 50.00860 | 21.50129 | 94° | 110km/h | 4667m | -1.6m/s | 0°C | 0% | 0hPa | 0V | 00:00:00 | 00:00:00 | 00:00:00 | |
| AKAW682 | 2026-09-04 23:40:23 | 50.00871 | 21.49954 | 96° | 117km/h | 4673m | -0.9m/s | 0°C | 0% | 0hPa | 0V | 00:00:00 | 00:00:00 | 00:00:00 | |
| AKAW68 | 2026-09-04 23:40:19 | 50.00878 | 21.49774 | 94° | 111km/h | 4676m | -1.0m/s | 0°C | 0% | 0hPa | 0V | 00:00:00 | 00:00:00 | 00:00:00 | |
| SQ9PSP-11 | 2026-09-04 23:40:16 | 50.00885 | 21.49642 | 97° | 115km/h | 4680m | -1.5m/s | 0°C | 0% | 0hPa | 0V | 00:00:00 | 00:00:00 | 00:00:00 | |
| SQ9EZE-12 | 2026-09-04 23:40:12 | 50.00895 | 21.49463 | 94° | 111km/h | 4685m | -1.9m/s | 0°C | 0% | 0hPa | 0V | 00:00:00 | 00:00:00 | 00:00:00 | |
| MIELECB | 2026-09-04 23:40:05 | 50.00911 | 21.49156 | 98° | 115km/h | 4698m | -1.6m/s | 0°C | 0% | 0hPa | 0V | 00:00:00 | 00:00:00 | 00:00:00 | |
| SQ9PSP-11 | 2026-09-04 23:40:01 | 50.00920 | 21.48973 | 93° | 113km/h | 4702m | -0.8m/s | 0°C | 0% | 0hPa | 0V | 00:00:00 | 00:00:00 | 00:00:00 | |
| AKAW68 | 2026-09-04 23:39:58 | 50.00925 | 21.48842 | 95° | 111km/h | 4705m | -0.5m/s | 0°C | 0% | 0hPa | 0V | 00:00:00 | 00:00:00 | 00:00:00 | |
| MIELECB | 2026-09-04 23:39:46 | 50.00953 | 21.48312 | 98° | 115km/h | 4720m | -1.3m/s | 0°C | 0% | 0hPa | 0V | 00:00:00 | 00:00:00 | 00:00:00 | |
| AKAW682 | 2026-09-04 23:39:38 | 50.00971 | 21.47958 | 95° | 110km/h | 4731m | -1.2m/s | 0°C | 0% | 0hPa | 0V | 00:00:00 | 00:00:00 | 00:00:00 | |
| MIELECB | 2026-09-04 23:39:31 | 50.00990 | 21.47648 | 95° | 111km/h | 4743m | -1.0m/s | 0°C | 0% | 0hPa | 0V | 00:00:00 | 00:00:00 | 00:00:00 | |
| SQ9PSP-11 | 2026-09-04 23:39:30 | 50.00991 | 21.47604 | 95° | 113km/h | 4744m | -0.6m/s | 0°C | 0% | 0hPa | 0V | 00:00:00 | 00:00:00 | 00:00:00 | |
| MIELECB | 2026-09-04 23:39:25 | 50.01003 | 21.47389 | 98° | 111km/h | 4749m | -1.0m/s | 0°C | 0% | 0hPa | 0V | 00:00:00 | 00:00:00 | 00:00:00 | |
| MIELECB | 2026-09-04 23:39:19 | 50.01021 | 21.47118 | 95° | 117km/h | 4755m | -2.0m/s | 0°C | 0% | 0hPa | 0V | 00:00:00 | 00:00:00 | 00:00:00 | |
| AKAW682 | 2026-09-04 23:39:18 | 50.01025 | 21.47029 | 93° | 110km/h | 4757m | -1.3m/s | 0°C | 0% | 0hPa | 0V | 00:00:00 | 00:00:00 | 00:00:00 | |
| SQ9PSP-11 | 2026-09-04 23:39:15 | 50.01028 | 21.46944 | 96° | 110km/h | 4760m | -2.0m/s | 0°C | 0% | 0hPa | 0V | 00:00:00 | 00:00:00 | 00:00:00 | |
| MIELECB | 2026-09-04 23:39:14 | 50.01031 | 21.46901 | 97° | 111km/h | 4762m | -2.6m/s | 0°C | 0% | 0hPa | 0V | 00:00:00 | 00:00:00 | 00:00:00 | |
| MIELECB | 2026-09-04 23:39:08 | 50.01051 | 21.46633 | 96° | 117km/h | 4770m | -1.0m/s | 0°C | 0% | 0hPa | 0V | 00:00:00 | 00:00:00 | 00:00:00 | |
| MIELECB | 2026-09-04 23:39:04 | 50.01062 | 21.46412 | 96° | 113km/h | 4774m | 0.0m/s | 0°C | 0% | 0hPa | 0V | 00:00:00 | 00:00:00 | 00:00:00 | |
| SQ9PSP-11 | 2026-09-04 23:38:59 | 50.01074 | 21.46236 | 99° | 115km/h | 4778m | -2.9m/s | 0°C | 0% | 0hPa | 0V | 00:00:00 | 00:00:00 | 00:00:00 | |
| AKAW68 | 2026-09-04 23:38:58 | 50.01078 | 21.46192 | 98° | 115km/h | 4780m | -1.4m/s | 0°C | 0% | 0hPa | 0V | 00:00:00 | 00:00:00 | 00:00:00 | |
| AKAW682 | 2026-09-04 23:38:56 | 50.01084 | 21.46102 | 98° | 115km/h | 4784m | -0.8m/s | 0°C | 0% | 0hPa | 0V | 00:00:00 | 00:00:00 | 00:00:00 | |
| MIELECB | 2026-09-04 23:38:54 | 50.01091 | 21.46010 | 96° | 119km/h | 4787m | -1.5m/s | 0°C | 0% | 0hPa | 0V | 00:00:00 | 00:00:00 | 00:00:00 | |
| MIELECB | 2026-09-04 23:38:45 | 50.01117 | 21.45608 | 99° | 115km/h | 4799m | -0.2m/s | 0°C | 0% | 0hPa | 0V | 00:00:00 | 00:00:00 | 00:00:00 | |
| SQ9PSP-11 | 2026-09-04 23:38:43 | 50.01125 | 21.45517 | 96° | 117km/h | 4801m | -1.8m/s | 0°C | 0% | 0hPa | 0V | 00:00:00 | 00:00:00 | 00:00:00 | |
| MIELECB | 2026-09-04 23:38:37 | 50.01140 | 21.45244 | 96° | 111km/h | 4808m | -0.9m/s | 0°C | 0% | 0hPa | 0V | 00:00:00 | 00:00:00 | 00:00:00 | |
| AKAW682 | 2026-09-04 23:38:35 | 50.01146 | 21.45158 | 98° | 111km/h | 4811m | -0.5m/s | 0°C | 0% | 0hPa | 0V | 00:00:00 | 00:00:00 | 00:00:00 | |
| MIELECB | 2026-09-04 23:38:31 | 50.01160 | 21.44980 | 96° | 115km/h | 4817m | -0.8m/s | 0°C | 0% | 0hPa | 0V | 00:00:00 | 00:00:00 | 00:00:00 | |
| SQ9PSP-11 | 2026-09-04 23:38:28 | 50.01171 | 21.44798 | 96° | 117km/h | 4823m | -1.3m/s | 0°C | 0% | 0hPa | 0V | 00:00:00 | 00:00:00 | 00:00:00 | |
| MIELECB | 2026-09-04 23:38:26 | 50.01174 | 21.44753 | 97° | 115km/h | 4825m | -1.3m/s | 0°C | 0% | 0hPa | 0V | 00:00:00 | 00:00:00 | 00:00:00 | |
| MIELECB | 2026-09-04 23:38:20 | 50.01194 | 21.44490 | 97° | 115km/h | 4828m | -0.8m/s | 0°C | 0% | 0hPa | 0V | 00:00:00 | 00:00:00 | 00:00:00 | |
| AKAW682 | 2026-09-04 23:38:14 | 50.01213 | 21.44220 | 97° | 115km/h | 4837m | -0.6m/s | 0°C | 0% | 0hPa | 0V | 00:00:00 | 00:00:00 | 00:00:00 | |
| SQ9PSP-11 | 2026-09-04 23:38:11 | 50.01222 | 21.44089 | 98° | 111km/h | 4839m | -0.5m/s | 0°C | 0% | 0hPa | 0V | 00:00:00 | 00:00:00 | 00:00:00 | |
| SQ9EZE-12 | 2026-09-04 23:38:10 | 50.01226 | 21.44046 | 99° | 113km/h | 4840m | -1.0m/s | 0°C | 0% | 0hPa | 0V | 00:00:00 | 00:00:00 | 00:00:00 | |
| MIELECB | 2026-09-04 23:38:09 | 50.01230 | 21.44001 | 98° | 115km/h | 4841m | -0.7m/s | 0°C | 0% | 0hPa | 0V | 00:00:00 | 00:00:00 | 00:00:00 | |
| MIELECB | 2026-09-04 23:38:03 | 50.01249 | 21.43736 | 98° | 115km/h | 4849m | 0.0m/s | 0°C | 0% | 0hPa | 0V | 00:00:00 | 00:00:00 | 00:00:00 | |
| MIELECB | 2026-09-04 23:37:57 | 50.01269 | 21.43471 | 98° | 115km/h | 4851m | -1.2m/s | 0°C | 0% | 0hPa | 0V | 00:00:00 | 00:00:00 | 00:00:00 | |
| AKAW68 | 2026-09-04 23:37:56 | 50.01273 | 21.43426 | 97° | 113km/h | 4852m | -0.7m/s | 0°C | 0% | 0hPa | 0V | 00:00:00 | 00:00:00 | 00:00:00 | |
| MIELECB | 2026-09-04 23:37:51 | 50.01290 | 21.43206 | 97° | 115km/h | 4857m | -0.2m/s | 0°C | 0% | 0hPa | 0V | 00:00:00 | 00:00:00 | 00:00:00 | |
| SQ9EZE-12 | 2026-09-04 23:37:46 | 50.01306 | 21.42986 | 99° | 115km/h | 4860m | -0.8m/s | 0°C | 0% | 0hPa | 0V | 00:00:00 | 00:00:00 | 00:00:00 | |
| MIELECB | 2026-09-04 23:37:45 | 50.01310 | 21.42941 | 97° | 117km/h | 4861m | -0.3m/s | 0°C | 0% | 0hPa | 0V | 00:00:00 | 00:00:00 | 00:00:00 | |
| SQ9PSP-11 | 2026-09-04 23:37:41 | 50.01323 | 21.42764 | 98° | 113km/h | 4865m | 0.2m/s | 0°C | 0% | 0hPa | 0V | 00:00:00 | 00:00:00 | 00:00:00 | |
| AKAW682 | 2026-09-04 23:37:40 | 50.01327 | 21.42719 | 99° | 115km/h | 4865m | 0.2m/s | 0°C | 0% | 0hPa | 0V | 00:00:00 | 00:00:00 | 00:00:00 | |
| MIELECB | 2026-09-04 23:37:39 | 50.01330 | 21.42675 | 98° | 117km/h | 4865m | -0.6m/s | 0°C | 0% | 0hPa | 0V | 00:00:00 | 00:00:00 | 00:00:00 | |
| AKAW68 | 2026-09-04 23:37:35 | 50.01344 | 21.42497 | 98° | 113km/h | 4865m | -0.6m/s | 0°C | 0% | 0hPa | 0V | 00:00:00 | 00:00:00 | 00:00:00 | |
| MIELECB | 2026-09-04 23:37:32 | 50.01354 | 21.42364 | 97° | 111km/h | 4865m | -1.2m/s | 0°C | 0% | 0hPa | 0V | 00:00:00 | 00:00:00 | 00:00:00 | |
| SQ9PSP-11 | 2026-09-04 23:37:25 | 50.01377 | 21.42053 | 97° | 115km/h | 4868m | -0.1m/s | 0°C | 0% | 0hPa | 0V | 00:00:00 | 00:00:00 | 00:00:00 | |
| SQ9EZE-12 | 2026-09-04 23:37:24 | 50.01380 | 21.42009 | 96° | 113km/h | 4869m | -0.7m/s | 0°C | 0% | 0hPa | 0V | 00:00:00 | 00:00:00 | 00:00:00 | |
| MIELECB | 2026-09-04 23:37:23 | 50.01383 | 21.41965 | 97° | 113km/h | 4869m | -0.4m/s | 0°C | 0% | 0hPa | 0V | 00:00:00 | 00:00:00 | 00:00:00 | |
| AKAW682 | 2026-09-04 23:37:19 | 50.01395 | 21.41788 | 98° | 113km/h | 4868m | 0.2m/s | 0°C | 0% | 0hPa | 0V | 00:00:00 | 00:00:00 | 00:00:00 | |
| MIELECB | 2026-09-04 23:37:16 | 50.01405 | 21.41654 | 96° | 111km/h | 4867m | -0.0m/s | 0°C | 0% | 0hPa | 0V | 00:00:00 | 00:00:00 | 00:00:00 | |
| AKAW68 | 2026-09-04 23:37:14 | 50.01411 | 21.41566 | 97° | 115km/h | 4868m | 1.2m/s | 0°C | 0% | 0hPa | 0V | 00:00:00 | 00:00:00 | 00:00:00 | |
| MIELECB | 2026-09-04 23:37:10 | 50.01423 | 21.41389 | 97° | 115km/h | 4869m | 0.7m/s | 0°C | 0% | 0hPa | 0V | 00:00:00 | 00:00:00 | 00:00:00 | |
| SQ9EZE-12 | 2026-09-04 23:37:09 | 50.01430 | 21.41301 | 98° | 113km/h | 4869m | 0.1m/s | 0°C | 0% | 0hPa | 0V | 00:00:00 | 00:00:00 | 00:00:00 | |
| MIELECB | 2026-09-04 23:37:05 | 50.01440 | 21.41168 | 98° | 115km/h | 4868m | -0.5m/s | 0°C | 0% | 0hPa | 0V | 00:00:00 | 00:00:00 | 00:00:00 | |
| MIELECB | 2026-09-04 23:36:59 | 50.01460 | 21.40903 | 97° | 111km/h | 4868m | 0.6m/s | 0°C | 0% | 0hPa | 0V | 00:00:00 | 00:00:00 | 00:00:00 | |
| AKAW68 | 2026-09-04 23:36:53 | 50.01477 | 21.40641 | 97° | 111km/h | 4868m | 0.7m/s | 0°C | 0% | 0hPa | 0V | 00:00:00 | 00:00:00 | 00:00:00 | |
| SQ9EZE-12 | 2026-09-04 23:36:52 | 50.01480 | 21.40597 | 97° | 113km/h | 4868m | 1.2m/s | 0°C | 0% | 0hPa | 0V | 00:00:00 | 00:00:00 | 00:00:00 | |
| MIELECB | 2026-09-04 23:36:48 | 50.01492 | 21.40422 | 96° | 111km/h | 4865m | -0.7m/s | 0°C | 0% | 0hPa | 0V | 00:00:00 | 00:00:00 | 00:00:00 | |
| MIELECB | 2026-09-04 23:36:42 | 50.01510 | 21.40157 | 96° | 111km/h | 4861m | 0.4m/s | 0°C | 0% | 0hPa | 0V | 00:00:00 | 00:00:00 | 00:00:00 | |
| AKAW682 | 2026-09-04 23:36:38 | 50.01520 | 21.39982 | 97° | 111km/h | 4858m | -0.2m/s | 0°C | 0% | 0hPa | 0V | 00:00:00 | 00:00:00 | 00:00:00 | |
| MIELECB | 2026-09-04 23:36:36 | 50.01525 | 21.39894 | 96° | 111km/h | 4857m | 0.1m/s | 0°C | 0% | 0hPa | 0V | 00:00:00 | 00:00:00 | 00:00:00 | |
| AKAW68 | 2026-09-04 23:36:32 | 50.01537 | 21.39714 | 97° | 115km/h | 4858m | -0.4m/s | 0°C | 0% | 0hPa | 0V | 00:00:00 | 00:00:00 | 00:00:00 | |
| MIELECB | 2026-09-04 23:36:31 | 50.01540 | 21.39669 | 98° | 115km/h | 4859m | 0.3m/s | 0°C | 0% | 0hPa | 0V | 00:00:00 | 00:00:00 | 00:00:00 | |
| MIELECB | 2026-09-04 23:36:25 | 50.01556 | 21.39403 | 94° | 111km/h | 4856m | 0.1m/s | 0°C | 0% | 0hPa | 0V | 00:00:00 | 00:00:00 | 00:00:00 | |
| SQ9PSP-11 | 2026-09-04 23:36:23 | 50.01560 | 21.39316 | 96° | 111km/h | 4857m | -2.1m/s | 0°C | 0% | 0hPa | 0V | 00:00:00 | 00:00:00 | 00:00:00 | |
| SQ9EZE-12 | 2026-09-04 23:36:21 | 50.01565 | 21.39228 | 98° | 115km/h | 4859m | 0.9m/s | 0°C | 0% | 0hPa | 0V | 00:00:00 | 00:00:00 | 00:00:00 | |
| AKAW682 | 2026-09-04 23:36:17 | 50.01579 | 21.39048 | 96° | 115km/h | 4854m | 1.1m/s | 0°C | 0% | 0hPa | 0V | 00:00:00 | 00:00:00 | 00:00:00 | |
| MIELECB | 2026-09-04 23:36:14 | 50.01586 | 21.38915 | 94° | 111km/h | 4852m | 0.8m/s | 0°C | 0% | 0hPa | 0V | 00:00:00 | 00:00:00 | 00:00:00 | |
| AKAW68 | 2026-09-04 23:36:12 | 50.01589 | 21.38827 | 95° | 113km/h | 4849m | 2.2m/s | 0°C | 0% | 0hPa | 0V | 00:00:00 | 00:00:00 | 00:00:00 | |
| MIELECB | 2026-09-04 23:36:08 | 50.01602 | 21.38649 | 99° | 113km/h | 4845m | 1.4m/s | 0°C | 0% | 0hPa | 0V | 00:00:00 | 00:00:00 | 00:00:00 | |
| MIELECB | 2026-09-04 23:36:03 | 50.01616 | 21.38427 | 95° | 111km/h | 4842m | 1.2m/s | 0°C | 0% | 0hPa | 0V | 00:00:00 | 00:00:00 | 00:00:00 | |
| MIELECB | 2026-09-04 23:35:58 | 50.01632 | 21.38161 | 98° | 113km/h | 4837m | 0.4m/s | 0°C | 0% | 0hPa | 0V | 00:00:00 | 00:00:00 | 00:00:00 | |
| AKAW682 | 2026-09-04 23:35:57 | 50.01632 | 21.38161 | 98° | 113km/h | 4837m | 0.4m/s | 0°C | 0% | 0hPa | 0V | 00:00:00 | 00:00:00 | 00:00:00 | |
| AKAW68 | 2026-09-04 23:35:51 | 50.01646 | 21.37894 | 93° | 115km/h | 4833m | 1.4m/s | 0°C | 0% | 0hPa | 0V | 00:00:00 | 00:00:00 | 00:00:00 | |
| MIELECB | 2026-09-04 23:35:46 | 50.01659 | 21.37677 | 98° | 111km/h | 4828m | 1.3m/s | 0°C | 0% | 0hPa | 0V | 00:00:00 | 00:00:00 | 00:00:00 | |
| MIELECB | 2026-09-04 23:35:41 | 50.01671 | 21.37454 | 93° | 117km/h | 4823m | 1.7m/s | 0°C | 0% | 0hPa | 0V | 00:00:00 | 00:00:00 | 00:00:00 | |
| SQ9EZE-12 | 2026-09-04 23:35:40 | 50.01673 | 21.37410 | 95° | 111km/h | 4823m | 0.6m/s | 0°C | 0% | 0hPa | 0V | 00:00:00 | 00:00:00 | 00:00:00 | |
| AKAW682 | 2026-09-04 23:35:36 | 50.01682 | 21.37237 | 97° | 108km/h | 4817m | -0.0m/s | 0°C | 0% | 0hPa | 0V | 00:00:00 | 00:00:00 | 00:00:00 | |
| MIELECB | 2026-09-04 23:35:35 | 50.01685 | 21.37195 | 95° | 108km/h | 4817m | -0.4m/s | 0°C | 0% | 0hPa | 0V | 00:00:00 | 00:00:00 | 00:00:00 | |
| SQ9PSP-11 | 2026-09-04 23:35:34 | 50.01688 | 21.37152 | 97° | 111km/h | 4817m | 0.1m/s | 0°C | 0% | 0hPa | 0V | 00:00:00 | 00:00:00 | 00:00:00 | |
| MIELECB | 2026-09-04 23:35:30 | 50.01695 | 21.36974 | 95° | 115km/h | 4816m | 1.1m/s | 0°C | 0% | 0hPa | 0V | 00:00:00 | 00:00:00 | 00:00:00 | |
| MIELECB | 2026-09-04 23:35:24 | 50.01709 | 21.36715 | 94° | 110km/h | 4809m | -0.0m/s | 0°C | 0% | 0hPa | 0V | 00:00:00 | 00:00:00 | 00:00:00 | |
| MIELECB | 2026-09-04 23:35:19 | 50.01719 | 21.36496 | 95° | 111km/h | 4805m | 1.4m/s | 0°C | 0% | 0hPa | 0V | 00:00:00 | 00:00:00 | 00:00:00 | |
| SQ9EZE-12 | 2026-09-04 23:35:17 | 50.01725 | 21.36410 | 97° | 110km/h | 4801m | 0.7m/s | 0°C | 0% | 0hPa | 0V | 00:00:00 | 00:00:00 | 00:00:00 | |
| AKAW682 | 2026-09-04 23:35:15 | 50.01729 | 21.36324 | 94° | 111km/h | 4798m | 0.0m/s | 0°C | 0% | 0hPa | 0V | 00:00:00 | 00:00:00 | 00:00:00 | |
| MIELECB | 2026-09-04 23:35:13 | 50.01732 | 21.36236 | 94° | 111km/h | 4797m | 0.7m/s | 0°C | 0% | 0hPa | 0V | 00:00:00 | 00:00:00 | 00:00:00 | |
| AKAW68 | 2026-09-04 23:35:09 | 50.01741 | 21.36063 | 98° | 110km/h | 4793m | 1.2m/s | 0°C | 0% | 0hPa | 0V | 00:00:00 | 00:00:00 | 00:00:00 | |
| MIELECB | 2026-09-04 23:35:07 | 50.01747 | 21.35978 | 96° | 113km/h | 4791m | 1.2m/s | 0°C | 0% | 0hPa | 0V | 00:00:00 | 00:00:00 | 00:00:00 | |
| SQ9PSP-11 | 2026-09-04 23:35:04 | 50.01752 | 21.35843 | 93° | 115km/h | 4787m | 0.9m/s | 0°C | 0% | 0hPa | 0V | 00:00:00 | 00:00:00 | 00:00:00 | |
| MIELECB | 2026-09-04 23:35:02 | 50.01755 | 21.35755 | 94° | 111km/h | 4784m | 0.7m/s | 0°C | 0% | 0hPa | 0V | 00:00:00 | 00:00:00 | 00:00:00 | |
| SQ9EZE-12 | 2026-09-04 23:35:01 | 50.01757 | 21.35712 | 95° | 108km/h | 4784m | 0.9m/s | 0°C | 0% | 0hPa | 0V | 00:00:00 | 00:00:00 | 00:00:00 | |
| MIELECB | 2026-09-04 23:34:56 | 50.01767 | 21.35495 | 94° | 115km/h | 4779m | 0.8m/s | 0°C | 0% | 0hPa | 0V | 00:00:00 | 00:00:00 | 00:00:00 | |
| AKAW682 | 2026-09-04 23:34:55 | 50.01768 | 21.35450 | 95° | 117km/h | 4779m | -0.4m/s | 0°C | 0% | 0hPa | 0V | 00:00:00 | 00:00:00 | 00:00:00 | |
| AKAW68 | 2026-09-04 23:34:49 | 50.01781 | 21.35189 | 95° | 111km/h | 4772m | 0.8m/s | 0°C | 0% | 0hPa | 0V | 00:00:00 | 00:00:00 | 00:00:00 | |
| SQ9PSP-11 | 2026-09-04 23:34:48 | 50.01783 | 21.35145 | 95° | 115km/h | 4771m | 1.6m/s | 0°C | 0% | 0hPa | 0V | 00:00:00 | 00:00:00 | 00:00:00 | |
| MIELECB | 2026-09-04 23:34:45 | 50.01789 | 21.35010 | 96° | 113km/h | 4767m | 1.4m/s | 0°C | 0% | 0hPa | 0V | 00:00:00 | 00:00:00 | 00:00:00 | |
| SQ9EZE-12 | 2026-09-04 23:34:43 | 50.01794 | 21.34923 | 97° | 110km/h | 4763m | 1.8m/s | 0°C | 0% | 0hPa | 0V | 00:00:00 | 00:00:00 | 00:00:00 | |
| MIELECB | 2026-09-04 23:34:40 | 50.01801 | 21.34793 | 94° | 111km/h | 4761m | 1.7m/s | 0°C | 0% | 0hPa | 0V | 00:00:00 | 00:00:00 | 00:00:00 | |
| AKAW682 | 2026-09-04 23:34:35 | 50.01811 | 21.34571 | 96° | 110km/h | 4755m | 2.1m/s | 0°C | 0% | 0hPa | 0V | 00:00:00 | 00:00:00 | 00:00:00 | |
| MIELECB | 2026-09-04 23:34:33 | 50.01815 | 21.34484 | 95° | 110km/h | 4752m | 0.9m/s | 0°C | 0% | 0hPa | 0V | 00:00:00 | 00:00:00 | 00:00:00 | |
| SQ9PSP-11 | 2026-09-04 23:34:32 | 50.01817 | 21.34441 | 93° | 111km/h | 4751m | 0.8m/s | 0°C | 0% | 0hPa | 0V | 00:00:00 | 00:00:00 | 00:00:00 | |
| AKAW68 | 2026-09-04 23:34:28 | 50.01823 | 21.34263 | 95° | 115km/h | 4746m | 2.8m/s | 0°C | 0% | 0hPa | 0V | 00:00:00 | 00:00:00 | 00:00:00 | |
| SQ9EZE-12 | 2026-09-04 23:34:27 | 50.01826 | 21.34218 | 98° | 111km/h | 4744m | 1.7m/s | 0°C | 0% | 0hPa | 0V | 00:00:00 | 00:00:00 | 00:00:00 | |
| MIELECB | 2026-09-04 23:34:21 | 50.01839 | 21.33954 | 93° | 115km/h | 4734m | 2.3m/s | 0°C | 0% | 0hPa | 0V | 00:00:00 | 00:00:00 | 00:00:00 | |
| SQ9PSP-11 | 2026-09-04 23:34:17 | 50.01848 | 21.33778 | 97° | 110km/h | 4727m | 1.3m/s | 0°C | 0% | 0hPa | 0V | 00:00:00 | 00:00:00 | 00:00:00 | |
| MIELECB | 2026-09-04 23:34:16 | 50.01851 | 21.33735 | 97° | 110km/h | 4727m | 1.1m/s | 0°C | 0% | 0hPa | 0V | 00:00:00 | 00:00:00 | 00:00:00 | |
| AKAW682 | 2026-09-04 23:34:14 | 50.01855 | 21.33651 | 91° | 108km/h | 4725m | 0.7m/s | 0°C | 0% | 0hPa | 0V | 00:00:00 | 00:00:00 | 00:00:00 | |
| MIELECB | 2026-09-04 23:34:10 | 50.01859 | 21.33473 | 95° | 117km/h | 4719m | 2.3m/s | 0°C | 0% | 0hPa | 0V | 00:00:00 | 00:00:00 | 00:00:00 | |
| SQ9EZE-12 | 2026-09-04 23:34:09 | 50.01862 | 21.33428 | 97° | 115km/h | 4717m | 1.8m/s | 0°C | 0% | 0hPa | 0V | 00:00:00 | 00:00:00 | 00:00:00 | |
| AKAW68 | 2026-09-04 23:34:07 | 50.01867 | 21.33339 | 95° | 113km/h | 4713m | 2.6m/s | 0°C | 0% | 0hPa | 0V | 00:00:00 | 00:00:00 | 00:00:00 | |
| MIELECB | 2026-09-04 23:34:03 | 50.01872 | 21.33166 | 93° | 110km/h | 4710m | 1.3m/s | 0°C | 0% | 0hPa | 0V | 00:00:00 | 00:00:00 | 00:00:00 | |
| SQ9PSP-11 | 2026-09-04 23:34:02 | 50.01873 | 21.33122 | 94° | 113km/h | 4708m | 2.3m/s | 0°C | 0% | 0hPa | 0V | 00:00:00 | 00:00:00 | 00:00:00 | |
| MIELECB | 2026-09-04 23:33:58 | 50.01882 | 21.32944 | 95° | 113km/h | 4702m | 2.5m/s | 0°C | 0% | 0hPa | 0V | 00:00:00 | 00:00:00 | 00:00:00 | |
| AKAW682 | 2026-09-04 23:33:54 | 50.01890 | 21.32724 | 96° | 111km/h | 4694m | 2.4m/s | 0°C | 0% | 0hPa | 0V | 00:00:00 | 00:00:00 | 00:00:00 | |
| SQ9EZE-12 | 2026-09-04 23:33:53 | 50.01890 | 21.32724 | 96° | 111km/h | 4694m | 2.4m/s | 0°C | 0% | 0hPa | 0V | 00:00:00 | 00:00:00 | 00:00:00 | |
| MIELECB | 2026-09-04 23:33:52 | 50.01892 | 21.32681 | 97° | 110km/h | 4692m | 2.1m/s | 0°C | 0% | 0hPa | 0V | 00:00:00 | 00:00:00 | 00:00:00 | |
| SQ9PSP-11 | 2026-09-04 23:33:46 | 50.01902 | 21.32416 | 94° | 115km/h | 4681m | 1.3m/s | 0°C | 0% | 0hPa | 0V | 00:00:00 | 00:00:00 | 00:00:00 | |
| MIELECB | 2026-09-04 23:33:45 | 50.01904 | 21.32371 | 95° | 113km/h | 4679m | 2.0m/s | 0°C | 0% | 0hPa | 0V | 00:00:00 | 00:00:00 | 00:00:00 | |
| MIELECB | 2026-09-04 23:33:40 | 50.01915 | 21.32152 | 93° | 115km/h | 4670m | 2.8m/s | 0°C | 0% | 0hPa | 0V | 00:00:00 | 00:00:00 | 00:00:00 | |
| SQ9EZE-12 | 2026-09-04 23:33:36 | 50.01922 | 21.31971 | 97° | 117km/h | 4661m | 1.2m/s | 0°C | 0% | 0hPa | 0V | 00:00:00 | 00:00:00 | 00:00:00 | |
| MIELECB | 2026-09-04 23:33:34 | 50.01927 | 21.31882 | 94° | 111km/h | 4656m | 1.1m/s | 0°C | 0% | 0hPa | 0V | 00:00:00 | 00:00:00 | 00:00:00 | |
| AKAW682 | 2026-09-04 23:33:32 | 50.01930 | 21.31795 | 94° | 110km/h | 4654m | 1.1m/s | 0°C | 0% | 0hPa | 0V | 00:00:00 | 00:00:00 | 00:00:00 | |
| SQ9PSP-11 | 2026-09-04 23:33:30 | 50.01934 | 21.31709 | 95° | 113km/h | 4651m | 2.1m/s | 0°C | 0% | 0hPa | 0V | 00:00:00 | 00:00:00 | 00:00:00 | |
| MIELECB | 2026-09-04 23:33:28 | 50.01939 | 21.31618 | 96° | 117km/h | 4647m | 1.8m/s | 0°C | 0% | 0hPa | 0V | 00:00:00 | 00:00:00 | 00:00:00 | |
| AKAW68 | 2026-09-04 23:33:26 | 50.01942 | 21.31527 | 94° | 117km/h | 4643m | 2.9m/s | 0°C | 0% | 0hPa | 0V | 00:00:00 | 00:00:00 | 00:00:00 | |
| MIELECB | 2026-09-04 23:33:22 | 50.01948 | 21.31351 | 96° | 111km/h | 4635m | 1.3m/s | 0°C | 0% | 0hPa | 0V | 00:00:00 | 00:00:00 | 00:00:00 | |
| SQ9EZE-12 | 2026-09-04 23:33:21 | 50.01951 | 21.31308 | 97° | 111km/h | 4634m | 1.9m/s | 0°C | 0% | 0hPa | 0V | 00:00:00 | 00:00:00 | 00:00:00 | |
| MIELECB | 2026-09-04 23:33:17 | 50.01961 | 21.31130 | 95° | 115km/h | 4626m | 1.4m/s | 0°C | 0% | 0hPa | 0V | 00:00:00 | 00:00:00 | 00:00:00 | |
| SQ9PSP-11 | 2026-09-04 23:33:15 | 50.01965 | 21.31040 | 95° | 111km/h | 4623m | 3.0m/s | 0°C | 0% | 0hPa | 0V | 00:00:00 | 00:00:00 | 00:00:00 | |
| MIELECB | 2026-09-04 23:33:12 | 50.01972 | 21.30907 | 95° | 110km/h | 4617m | 2.2m/s | 0°C | 0% | 0hPa | 0V | 00:00:00 | 00:00:00 | 00:00:00 | |
| AKAW682 | 2026-09-04 23:33:11 | 50.01973 | 21.30864 | 94° | 113km/h | 4615m | 1.5m/s | 0°C | 0% | 0hPa | 0V | 00:00:00 | 00:00:00 | 00:00:00 | |
| AKAW68 | 2026-09-04 23:33:06 | 50.01982 | 21.30643 | 97° | 113km/h | 4606m | 2.5m/s | 0°C | 0% | 0hPa | 0V | 00:00:00 | 00:00:00 | 00:00:00 | |
| SQ9EZE-12 | 2026-09-04 23:33:04 | 50.01987 | 21.30554 | 94° | 113km/h | 4602m | 1.5m/s | 0°C | 0% | 0hPa | 0V | 00:00:00 | 00:00:00 | 00:00:00 | |
| MIELECB | 2026-09-04 23:33:01 | 50.01992 | 21.30420 | 94° | 111km/h | 4594m | 2.4m/s | 0°C | 0% | 0hPa | 0V | 00:00:00 | 00:00:00 | 00:00:00 | |
| SQ9PSP-11 | 2026-09-04 23:32:59 | 50.01995 | 21.30333 | 95° | 111km/h | 4590m | 1.9m/s | 0°C | 0% | 0hPa | 0V | 00:00:00 | 00:00:00 | 00:00:00 | |
| MIELECB | 2026-09-04 23:32:52 | 50.02009 | 21.30025 | 95° | 108km/h | 4577m | 2.4m/s | 0°C | 0% | 0hPa | 0V | 00:00:00 | 00:00:00 | 00:00:00 | |
| AKAW682 | 2026-09-04 23:32:51 | 50.02011 | 21.29983 | 95° | 108km/h | 4575m | 1.7m/s | 0°C | 0% | 0hPa | 0V | 00:00:00 | 00:00:00 | 00:00:00 | |
| SQ9EZE-12 | 2026-09-04 23:32:48 | 50.02019 | 21.29852 | 96° | 115km/h | 4569m | 2.4m/s | 0°C | 0% | 0hPa | 0V | 00:00:00 | 00:00:00 | 00:00:00 | |
| AKAW68 | 2026-09-04 23:32:47 | 50.02024 | 21.29762 | 94° | 115km/h | 4565m | 1.9m/s | 0°C | 0% | 0hPa | 0V | 00:00:00 | 00:00:00 | 00:00:00 | |
| MIELECB | 2026-09-04 23:32:46 | 50.02024 | 21.29762 | 94° | 115km/h | 4565m | 1.9m/s | 0°C | 0% | 0hPa | 0V | 00:00:00 | 00:00:00 | 00:00:00 | |
| SQ9PSP-11 | 2026-09-04 23:32:43 | 50.02028 | 21.29632 | 94° | 108km/h | 4559m | 1.4m/s | 0°C | 0% | 0hPa | 0V | 00:00:00 | 00:00:00 | 00:00:00 | |
| MIELECB | 2026-09-04 23:32:40 | 50.02036 | 21.29503 | 99° | 111km/h | 4553m | 2.9m/s | 0°C | 0% | 0hPa | 0V | 00:00:00 | 00:00:00 | 00:00:00 | |
| MIELECB | 2026-09-04 23:32:34 | 50.02051 | 21.29242 | 95° | 110km/h | 4541m | 2.2m/s | 0°C | 0% | 0hPa | 0V | 00:00:00 | 00:00:00 | 00:00:00 | |
| AKAW682 | 2026-09-04 23:32:30 | 50.02060 | 21.29067 | 96° | 113km/h | 4531m | 3.2m/s | 0°C | 0% | 0hPa | 0V | 00:00:00 | 00:00:00 | 00:00:00 | |
| MIELECB | 2026-09-04 23:32:29 | 50.02063 | 21.29023 | 97° | 108km/h | 4528m | 2.5m/s | 0°C | 0% | 0hPa | 0V | 00:00:00 | 00:00:00 | 00:00:00 | |
| SQ9PSP-11 | 2026-09-04 23:32:27 | 50.02068 | 21.28939 | 97° | 108km/h | 4523m | 1.8m/s | 0°C | 0% | 0hPa | 0V | 00:00:00 | 00:00:00 | 00:00:00 | |
| AKAW68 | 2026-09-04 23:32:25 | 50.02074 | 21.28853 | 97° | 111km/h | 4519m | 1.9m/s | 0°C | 0% | 0hPa | 0V | 00:00:00 | 00:00:00 | 00:00:00 | |
| MIELECB | 2026-09-04 23:32:23 | 50.02079 | 21.28766 | 97° | 111km/h | 4517m | 1.6m/s | 0°C | 0% | 0hPa | 0V | 00:00:00 | 00:00:00 | 00:00:00 | |
| MIELECB | 2026-09-04 23:32:17 | 50.02095 | 21.28509 | 97° | 113km/h | 4501m | 3.2m/s | 0°C | 0% | 0hPa | 0V | 00:00:00 | 00:00:00 | 00:00:00 | |
| SQ9EZE-12 | 2026-09-04 23:32:14 | 50.02103 | 21.28379 | 97° | 108km/h | 4494m | 1.3m/s | 0°C | 0% | 0hPa | 0V | 00:00:00 | 00:00:00 | 00:00:00 | |
| MIELECB | 2026-09-04 23:32:11 | 50.02111 | 21.28253 | 97° | 108km/h | 4487m | 2.8m/s | 0°C | 0% | 0hPa | 0V | 00:00:00 | 00:00:00 | 00:00:00 | |
| AKAW682 | 2026-09-04 23:32:10 | 50.02113 | 21.28210 | 97° | 111km/h | 4485m | 1.7m/s | 0°C | 0% | 0hPa | 0V | 00:00:00 | 00:00:00 | 00:00:00 | |
| MIELECB | 2026-09-04 23:32:06 | 50.02125 | 21.28041 | 96° | 108km/h | 4475m | 3.5m/s | 0°C | 0% | 0hPa | 0V | 00:00:00 | 00:00:00 | 00:00:00 | |
| AKAW68 | 2026-09-04 23:32:04 | 50.02129 | 21.27956 | 94° | 110km/h | 4471m | 1.6m/s | 0°C | 0% | 0hPa | 0V | 00:00:00 | 00:00:00 | 00:00:00 | |
| MIELECB | 2026-09-04 23:32:00 | 50.02135 | 21.27786 | 95° | 108km/h | 4463m | 3.2m/s | 0°C | 0% | 0hPa | 0V | 00:00:00 | 00:00:00 | 00:00:00 | |
| SQ9EZE-12 | 2026-09-04 23:31:59 | 50.02137 | 21.27744 | 96° | 108km/h | 4459m | 4.5m/s | 0°C | 0% | 0hPa | 0V | 00:00:00 | 00:00:00 | 00:00:00 | |
| SQ9PSP-11 | 2026-09-04 23:31:56 | 50.02144 | 21.27616 | 95° | 110km/h | 4452m | 2.5m/s | 0°C | 0% | 0hPa | 0V | 00:00:00 | 00:00:00 | 00:00:00 | |
| MIELECB | 2026-09-04 23:31:55 | 50.02146 | 21.27573 | 97° | 108km/h | 4449m | 2.5m/s | 0°C | 0% | 0hPa | 0V | 00:00:00 | 00:00:00 | 00:00:00 | |
| AKAW682 | 2026-09-04 23:31:50 | 50.02158 | 21.27362 | 95° | 111km/h | 4438m | 2.2m/s | 0°C | 0% | 0hPa | 0V | 00:00:00 | 00:00:00 | 00:00:00 | |
| MIELECB | 2026-09-04 23:31:49 | 50.02160 | 21.27318 | 96° | 111km/h | 4436m | 2.4m/s | 0°C | 0% | 0hPa | 0V | 00:00:00 | 00:00:00 | 00:00:00 | |
| SQ9EZE-12 | 2026-09-04 23:31:44 | 50.02174 | 21.27106 | 97° | 110km/h | 4420m | 2.7m/s | 0°C | 0% | 0hPa | 0V | 00:00:00 | 00:00:00 | 00:00:00 | |
| MIELECB | 2026-09-04 23:31:43 | 50.02177 | 21.27063 | 97° | 111km/h | 4418m | 2.4m/s | 0°C | 0% | 0hPa | 0V | 00:00:00 | 00:00:00 | 00:00:00 | |
| SQ9PSP-11 | 2026-09-04 23:31:41 | 50.02182 | 21.26976 | 97° | 110km/h | 4412m | 1.8m/s | 0°C | 0% | 0hPa | 0V | 00:00:00 | 00:00:00 | 00:00:00 | |
| MIELECB | 2026-09-04 23:31:37 | 50.02196 | 21.26806 | 97° | 110km/h | 4400m | 3.2m/s | 0°C | 0% | 0hPa | 0V | 00:00:00 | 00:00:00 | 00:00:00 | |
| MIELECB | 2026-09-04 23:31:31 | 50.02210 | 21.26549 | 96° | 108km/h | 4383m | 2.0m/s | 0°C | 0% | 0hPa | 0V | 00:00:00 | 00:00:00 | 00:00:00 | |
| AKAW682 | 2026-09-04 23:31:30 | 50.02213 | 21.26506 | 96° | 108km/h | 4380m | 4.0m/s | 0°C | 0% | 0hPa | 0V | 00:00:00 | 00:00:00 | 00:00:00 | |
| SQ9PSP-11 | 2026-09-04 23:31:26 | 50.02223 | 21.26337 | 97° | 110km/h | 4367m | 2.3m/s | 0°C | 0% | 0hPa | 0V | 00:00:00 | 00:00:00 | 00:00:00 | |
| MIELECB | 2026-09-04 23:31:25 | 50.02227 | 21.26294 | 97° | 108km/h | 4365m | 3.6m/s | 0°C | 0% | 0hPa | 0V | 00:00:00 | 00:00:00 | 00:00:00 | |
| AKAW68 | 2026-09-04 23:31:23 | 50.02232 | 21.26209 | 97° | 110km/h | 4359m | 4.2m/s | 0°C | 0% | 0hPa | 0V | 00:00:00 | 00:00:00 | 00:00:00 | |
| MIELECB | 2026-09-04 23:31:19 | 50.02244 | 21.26036 | 96° | 110km/h | 4346m | 3.2m/s | 0°C | 0% | 0hPa | 0V | 00:00:00 | 00:00:00 | 00:00:00 | |
| MIELECB | 2026-09-04 23:31:14 | 50.02256 | 21.25821 | 96° | 110km/h | 4330m | 3.8m/s | 0°C | 0% | 0hPa | 0V | 00:00:00 | 00:00:00 | 00:00:00 | |
| SQ9PSP-11 | 2026-09-04 23:31:10 | 50.02266 | 21.25645 | 95° | 111km/h | 4317m | 1.5m/s | 0°C | 0% | 0hPa | 0V | 00:00:00 | 00:00:00 | 00:00:00 | |
| MIELECB | 2026-09-04 23:31:09 | 50.02268 | 21.25602 | 94° | 110km/h | 4314m | 4.4m/s | 0°C | 0% | 0hPa | 0V | 00:00:00 | 00:00:00 | 00:00:00 | |
| MIELECB | 2026-09-04 23:31:03 | 50.02284 | 21.25347 | 98° | 110km/h | 4292m | 1.4m/s | 0°C | 0% | 0hPa | 0V | 00:00:00 | 00:00:00 | 00:00:00 | |
| AKAW68 | 2026-09-04 23:31:02 | 50.02286 | 21.25304 | 96° | 110km/h | 4289m | 5.4m/s | 0°C | 0% | 0hPa | 0V | 00:00:00 | 00:00:00 | 00:00:00 | |
| SQ9EZE-12 | 2026-09-04 23:31:01 | 50.02290 | 21.25261 | 97° | 110km/h | 4285m | 2.5m/s | 0°C | 0% | 0hPa | 0V | 00:00:00 | 00:00:00 | 00:00:00 | |
| MIELECB | 2026-09-04 23:30:58 | 50.02299 | 21.25134 | 97° | 108km/h | 4275m | 4.6m/s | 0°C | 0% | 0hPa | 0V | 00:00:00 | 00:00:00 | 00:00:00 | |
| SQ9PSP-11 | 2026-09-04 23:30:54 | 50.02310 | 21.24964 | 96° | 110km/h | 4260m | 3.7m/s | 0°C | 0% | 0hPa | 0V | 00:00:00 | 00:00:00 | 00:00:00 | |
| MIELECB | 2026-09-04 23:30:52 | 50.02316 | 21.24879 | 97° | 108km/h | 4255m | 1.8m/s | 0°C | 0% | 0hPa | 0V | 00:00:00 | 00:00:00 | 00:00:00 | |
| MIELECB | 2026-09-04 23:30:47 | 50.02331 | 21.24668 | 98° | 108km/h | 4240m | 4.2m/s | 0°C | 0% | 0hPa | 0V | 00:00:00 | 00:00:00 | 00:00:00 | |
| AKAW682 | 2026-09-04 23:30:46 | 50.02334 | 21.24626 | 98° | 108km/h | 4236m | 2.4m/s | 0°C | 0% | 0hPa | 0V | 00:00:00 | 00:00:00 | 00:00:00 | |
| AKAW68 | 2026-09-04 23:30:42 | 50.02348 | 21.24458 | 97° | 110km/h | 4220m | 2.7m/s | 0°C | 0% | 0hPa | 0V | 00:00:00 | 00:00:00 | 00:00:00 | |
| MIELECB | 2026-09-04 23:30:41 | 50.02351 | 21.24416 | 97° | 110km/h | 4217m | 2.9m/s | 0°C | 0% | 0hPa | 0V | 00:00:00 | 00:00:00 | 00:00:00 | |
| SQ9PSP-11 | 2026-09-04 23:30:39 | 50.02356 | 21.24332 | 96° | 106km/h | 4210m | 2.4m/s | 0°C | 0% | 0hPa | 0V | 00:00:00 | 00:00:00 | 00:00:00 | |
| MIELECB | 2026-09-04 23:30:35 | 50.02368 | 21.24167 | 97° | 106km/h | 4197m | 2.2m/s | 0°C | 0% | 0hPa | 0V | 00:00:00 | 00:00:00 | 00:00:00 | |
| SQ9EZE-12 | 2026-09-04 23:30:34 | 50.02370 | 21.24125 | 96° | 106km/h | 4193m | 5.4m/s | 0°C | 0% | 0hPa | 0V | 00:00:00 | 00:00:00 | 00:00:00 | |
| MIELECB | 2026-09-04 23:30:29 | 50.02383 | 21.23919 | 97° | 108km/h | 4174m | 3.0m/s | 0°C | 0% | 0hPa | 0V | 00:00:00 | 00:00:00 | 00:00:00 | |
| SQ9PSP-11 | 2026-09-04 23:30:23 | 50.02396 | 21.23667 | 95° | 108km/h | 4158m | 4.4m/s | 0°C | 0% | 0hPa | 0V | 00:00:00 | 00:00:00 | 00:00:00 | |
| AKAW68 | 2026-09-04 23:30:21 | 50.02401 | 21.23582 | 96° | 104km/h | 4151m | 5.4m/s | 0°C | 0% | 0hPa | 0V | 00:00:00 | 00:00:00 | 00:00:00 | |
| AKAW682 | 2026-09-04 23:30:20 | 50.02403 | 21.23541 | 97° | 108km/h | 4147m | 3.0m/s | 0°C | 0% | 0hPa | 0V | 00:00:00 | 00:00:00 | 00:00:00 | |
| MIELECB | 2026-09-04 23:30:19 | 50.02406 | 21.23499 | 95° | 110km/h | 4142m | 6.6m/s | 0°C | 0% | 0hPa | 0V | 00:00:00 | 00:00:00 | 00:00:00 | |
| SQ9EZE-12 | 2026-09-04 23:30:18 | 50.02408 | 21.23456 | 96° | 108km/h | 4136m | 2.9m/s | 0°C | 0% | 0hPa | 0V | 00:00:00 | 00:00:00 | 00:00:00 | |
| MIELECB | 2026-09-04 23:30:13 | 50.02417 | 21.23247 | 95° | 106km/h | 4117m | 3.4m/s | 0°C | 0% | 0hPa | 0V | 00:00:00 | 00:00:00 | 00:00:00 | |
| SQ9PSP-11 | 2026-09-04 23:30:08 | 50.02429 | 21.23035 | 96° | 108km/h | 4101m | 3.6m/s | 0°C | 0% | 0hPa | 0V | 00:00:00 | 00:00:00 | 00:00:00 | |
| SQ9EZE-12 | 2026-09-04 23:30:01 | 50.02444 | 21.22742 | 97° | 111km/h | 4078m | 3.2m/s | 0°C | 0% | 0hPa | 0V | 00:00:00 | 00:00:00 | 00:00:00 | |
| MIELECB | 2026-09-04 23:30:00 | 50.02447 | 21.22699 | 96° | 110km/h | 4074m | 5.2m/s | 0°C | 0% | 0hPa | 0V | 00:00:00 | 00:00:00 | 00:00:00 | |
| AKAW682 | 2026-09-04 23:29:59 | 50.02449 | 21.22656 | 97° | 113km/h | 4069m | 2.4m/s | 0°C | 0% | 0hPa | 0V | 00:00:00 | 00:00:00 | 00:00:00 | |
| MIELECB | 2026-09-04 23:29:54 | 50.02464 | 21.22443 | 97° | 108km/h | 4050m | 2.1m/s | 0°C | 0% | 0hPa | 0V | 00:00:00 | 00:00:00 | 00:00:00 | |
| SQ9PSP-11 | 2026-09-04 23:29:52 | 50.02469 | 21.22357 | 95° | 113km/h | 4046m | 2.1m/s | 0°C | 0% | 0hPa | 0V | 00:00:00 | 00:00:00 | 00:00:00 | |
| MIELECB | 2026-09-04 23:29:49 | 50.02476 | 21.22223 | 96° | 113km/h | 4036m | 4.4m/s | 0°C | 0% | 0hPa | 0V | 00:00:00 | 00:00:00 | 00:00:00 | |
| SQ9EZE-12 | 2026-09-04 23:29:43 | 50.02495 | 21.21965 | 98° | 111km/h | 4011m | 2.6m/s | 0°C | 0% | 0hPa | 0V | 00:00:00 | 00:00:00 | 00:00:00 | |
| MIELECB | 2026-09-04 23:29:42 | 50.02498 | 21.21922 | 95° | 108km/h | 4008m | 4.1m/s | 0°C | 0% | 0hPa | 0V | 00:00:00 | 00:00:00 | 00:00:00 | |
| AKAW682 | 2026-09-04 23:29:39 | 50.02502 | 21.21793 | 93° | 108km/h | 3997m | 4.2m/s | 0°C | 0% | 0hPa | 0V | 00:00:00 | 00:00:00 | 00:00:00 | |
| MIELECB | 2026-09-04 23:29:36 | 50.02508 | 21.21666 | 95° | 111km/h | 3987m | 4.5m/s | 0°C | 0% | 0hPa | 0V | 00:00:00 | 00:00:00 | 00:00:00 | |
| MIELECB | 2026-09-04 23:29:31 | 50.02519 | 21.21452 | 95° | 110km/h | 3967m | 4.2m/s | 0°C | 0% | 0hPa | 0V | 00:00:00 | 00:00:00 | 00:00:00 | |
| SQ9EZE-12 | 2026-09-04 23:29:27 | 50.02525 | 21.21286 | 93° | 104km/h | 3953m | 3.2m/s | 0°C | 0% | 0hPa | 0V | 00:00:00 | 00:00:00 | 00:00:00 | |
| MIELECB | 2026-09-04 23:29:26 | 50.02527 | 21.21244 | 95° | 108km/h | 3950m | 2.9m/s | 0°C | 0% | 0hPa | 0V | 00:00:00 | 00:00:00 | 00:00:00 | |
| MIELECB | 2026-09-04 23:29:21 | 50.02534 | 21.21029 | 95° | 108km/h | 3934m | 3.7m/s | 0°C | 0% | 0hPa | 0V | 00:00:00 | 00:00:00 | 00:00:00 | |
| AKAW68 | 2026-09-04 23:29:19 | 50.02539 | 21.20946 | 97° | 106km/h | 3924m | 3.8m/s | 0°C | 0% | 0hPa | 0V | 00:00:00 | 00:00:00 | 00:00:00 | |
| AKAW682 | 2026-09-04 23:29:18 | 50.02541 | 21.20905 | 95° | 102km/h | 3920m | 4.9m/s | 0°C | 0% | 0hPa | 0V | 00:00:00 | 00:00:00 | 00:00:00 | |
| MIELECB | 2026-09-04 23:29:15 | 50.02544 | 21.20785 | 92° | 102km/h | 3907m | 3.2m/s | 0°C | 0% | 0hPa | 0V | 00:00:00 | 00:00:00 | 00:00:00 | |
| SQ9EZE-12 | 2026-09-04 23:29:12 | 50.02542 | 21.20663 | 91° | 108km/h | 3897m | 0.8m/s | 0°C | 0% | 0hPa | 0V | 00:00:00 | 00:00:00 | 00:00:00 | |
| MIELECB | 2026-09-04 23:29:09 | 50.02542 | 21.20538 | 93° | 104km/h | 3890m | 4.8m/s | 0°C | 0% | 0hPa | 0V | 00:00:00 | 00:00:00 | 00:00:00 | |
| SQ9PSP-11 | 2026-09-04 23:29:05 | 50.02547 | 21.20377 | 92° | 97km/h | 3873m | 5.6m/s | 0°C | 0% | 0hPa | 0V | 00:00:00 | 00:00:00 | 00:00:00 | |
| MIELECB | 2026-09-04 23:29:01 | 50.02550 | 21.20220 | 94° | 102km/h | 3858m | 4.9m/s | 0°C | 0% | 0hPa | 0V | 00:00:00 | 00:00:00 | 00:00:00 | |
| AKAW68 | 2026-09-04 23:28:58 | 50.02552 | 21.20099 | 94° | 104km/h | 3846m | 3.7m/s | 0°C | 0% | 0hPa | 0V | 00:00:00 | 00:00:00 | 00:00:00 | |
| SQ9EZE-12 | 2026-09-04 23:28:57 | 50.02553 | 21.20059 | 91° | 102km/h | 3842m | 2.4m/s | 0°C | 0% | 0hPa | 0V | 00:00:00 | 00:00:00 | 00:00:00 | |
| MIELECB | 2026-09-04 23:28:56 | 50.02553 | 21.20019 | 91° | 106km/h | 3837m | 4.4m/s | 0°C | 0% | 0hPa | 0V | 00:00:00 | 00:00:00 | 00:00:00 | |
| MIELECB | 2026-09-04 23:28:49 | 50.02558 | 21.19740 | 91° | 104km/h | 3812m | 2.4m/s | 0°C | 0% | 0hPa | 0V | 00:00:00 | 00:00:00 | 00:00:00 | |
| SQ9PSP-11 | 2026-09-04 23:28:48 | 50.02558 | 21.19699 | 92° | 104km/h | 3809m | 3.4m/s | 0°C | 0% | 0hPa | 0V | 00:00:00 | 00:00:00 | 00:00:00 | |
| MIELECB | 2026-09-04 23:28:43 | 50.02559 | 21.19492 | 90° | 104km/h | 3791m | 3.8m/s | 0°C | 0% | 0hPa | 0V | 00:00:00 | 00:00:00 | 00:00:00 | |
| SQ9EZE-12 | 2026-09-04 23:28:39 | 50.02562 | 21.19336 | 94° | 97km/h | 3775m | 3.0m/s | 0°C | 0% | 0hPa | 0V | 00:00:00 | 00:00:00 | 00:00:00 | |
| AKAW68 | 2026-09-04 23:28:37 | 50.02564 | 21.19256 | 94° | 106km/h | 3770m | 3.8m/s | 0°C | 0% | 0hPa | 0V | 00:00:00 | 00:00:00 | 00:00:00 | |
| AKAW682 | 2026-09-04 23:28:36 | 50.02564 | 21.19216 | 91° | 102km/h | 3766m | 2.7m/s | 0°C | 0% | 0hPa | 0V | 00:00:00 | 00:00:00 | 00:00:00 | |
| SQ9PSP-11 | 2026-09-04 23:28:33 | 50.02566 | 21.19096 | 93° | 99km/h | 3755m | 5.5m/s | 0°C | 0% | 0hPa | 0V | 00:00:00 | 00:00:00 | 00:00:00 | |
| MIELECB | 2026-09-04 23:28:31 | 50.02568 | 21.19016 | 94° | 104km/h | 3746m | 4.5m/s | 0°C | 0% | 0hPa | 0V | 00:00:00 | 00:00:00 | 00:00:00 | |
| MIELECB | 2026-09-04 23:28:25 | 50.02576 | 21.18773 | 93° | 104km/h | 3721m | 2.8m/s | 0°C | 0% | 0hPa | 0V | 00:00:00 | 00:00:00 | 00:00:00 | |
| SQ9EZE-12 | 2026-09-04 23:28:23 | 50.02577 | 21.18694 | 92° | 97km/h | 3714m | 1.4m/s | 0°C | 0% | 0hPa | 0V | 00:00:00 | 00:00:00 | 00:00:00 | |
| MIELECB | 2026-09-04 23:28:19 | 50.02579 | 21.18533 | 91° | 108km/h | 3703m | -0.4m/s | 0°C | 0% | 0hPa | 0V | 00:00:00 | 00:00:00 | 00:00:00 | |
| SQ9PSP-11 | 2026-09-04 23:28:18 | 50.02579 | 21.18491 | 92° | 106km/h | 3701m | 3.5m/s | 0°C | 0% | 0hPa | 0V | 00:00:00 | 00:00:00 | 00:00:00 | |
| AKAW68 | 2026-09-04 23:28:17 | 50.02579 | 21.18449 | 90° | 108km/h | 3698m | 1.9m/s | 0°C | 0% | 0hPa | 0V | 00:00:00 | 00:00:00 | 00:00:00 | |
| AKAW682 | 2026-09-04 23:28:15 | 50.02580 | 21.18368 | 91° | 100km/h | 3692m | 2.8m/s | 0°C | 0% | 0hPa | 0V | 00:00:00 | 00:00:00 | 00:00:00 | |
| MIELECB | 2026-09-04 23:28:07 | 50.02577 | 21.18045 | 90° | 100km/h | 3662m | 2.6m/s | 0°C | 0% | 0hPa | 0V | 00:00:00 | 00:00:00 | 00:00:00 | |
| SQ9EZE-12 | 2026-09-04 23:28:06 | 50.02577 | 21.18006 | 90° | 100km/h | 3659m | 2.4m/s | 0°C | 0% | 0hPa | 0V | 00:00:00 | 00:00:00 | 00:00:00 | |
| MIELECB | 2026-09-04 23:28:01 | 50.02576 | 21.17809 | 88° | 104km/h | 3641m | 3.8m/s | 0°C | 0% | 0hPa | 0V | 00:00:00 | 00:00:00 | 00:00:00 | |
| SQ9PSP-11 | 2026-09-04 23:27:59 | 50.02573 | 21.17730 | 89° | 99km/h | 3634m | 5.2m/s | 0°C | 0% | 0hPa | 0V | 00:00:00 | 00:00:00 | 00:00:00 | |
| AKAW68 | 2026-09-04 23:27:56 | 50.02572 | 21.17610 | 91° | 106km/h | 3621m | 2.6m/s | 0°C | 0% | 0hPa | 0V | 00:00:00 | 00:00:00 | 00:00:00 | |
| AKAW682 | 2026-09-04 23:27:54 | 50.02573 | 21.17529 | 92° | 99km/h | 3614m | 2.4m/s | 0°C | 0% | 0hPa | 0V | 00:00:00 | 00:00:00 | 00:00:00 | |
| MIELECB | 2026-09-04 23:27:52 | 50.02574 | 21.17450 | 92° | 104km/h | 3605m | 3.1m/s | 0°C | 0% | 0hPa | 0V | 00:00:00 | 00:00:00 | 00:00:00 | |
| SQ9EZE-12 | 2026-09-04 23:27:49 | 50.02576 | 21.17331 | 90° | 99km/h | 3594m | 2.5m/s | 0°C | 0% | 0hPa | 0V | 00:00:00 | 00:00:00 | 00:00:00 | |
| SQ9PSP-11 | 2026-09-04 23:27:43 | 50.02571 | 21.17093 | 91° | 102km/h | 3572m | 2.9m/s | 0°C | 0% | 0hPa | 0V | 00:00:00 | 00:00:00 | 00:00:00 | |
| AKAW68 | 2026-09-04 23:27:35 | 50.02577 | 21.16767 | 89° | 104km/h | 3543m | 3.1m/s | 0°C | 0% | 0hPa | 0V | 00:00:00 | 00:00:00 | 00:00:00 | |
| SQ9EZE-12 | 2026-09-04 23:27:33 | 50.02575 | 21.16686 | 87° | 100km/h | 3536m | 2.3m/s | 0°C | 0% | 0hPa | 0V | 00:00:00 | 00:00:00 | 00:00:00 | |
| MIELECB | 2026-09-04 23:27:31 | 50.02574 | 21.16611 | 90° | 93km/h | 3528m | 2.4m/s | 0°C | 0% | 0hPa | 0V | 00:00:00 | 00:00:00 | 00:00:00 | |
| SQ9PSP-11 | 2026-09-04 23:27:26 | 50.02583 | 21.16416 | 94° | 100km/h | 3513m | 2.1m/s | 0°C | 0% | 0hPa | 0V | 00:00:00 | 00:00:00 | 00:00:00 | |
| MIELECB | 2026-09-04 23:27:22 | 50.02584 | 21.16259 | 91° | 99km/h | 3496m | 4.4m/s | 0°C | 0% | 0hPa | 0V | 00:00:00 | 00:00:00 | 00:00:00 | |
| SQ9EZE-12 | 2026-09-04 23:27:17 | 50.02587 | 21.16073 | 92° | 95km/h | 3479m | 3.4m/s | 0°C | 0% | 0hPa | 0V | 00:00:00 | 00:00:00 | 00:00:00 | |
| MIELECB | 2026-09-04 23:27:16 | 50.02588 | 21.16036 | 94° | 99km/h | 3475m | 3.6m/s | 0°C | 0% | 0hPa | 0V | 00:00:00 | 00:00:00 | 00:00:00 | |
| AKAW68 | 2026-09-04 23:27:15 | 50.02589 | 21.15997 | 96° | 99km/h | 3472m | 1.9m/s | 0°C | 0% | 0hPa | 0V | 00:00:00 | 00:00:00 | 00:00:00 | |
| AKAW682 | 2026-09-04 23:27:13 | 50.02592 | 21.15920 | 92° | 95km/h | 3466m | 2.0m/s | 0°C | 0% | 0hPa | 0V | 00:00:00 | 00:00:00 | 00:00:00 | |
| SQ9PSP-11 | 2026-09-04 23:27:11 | 50.02593 | 21.15845 | 94° | 95km/h | 3459m | 2.8m/s | 0°C | 0% | 0hPa | 0V | 00:00:00 | 00:00:00 | 00:00:00 | |
| MIELECB | 2026-09-04 23:27:09 | 50.02596 | 21.15772 | 94° | 89km/h | 3450m | 3.2m/s | 0°C | 0% | 0hPa | 0V | 00:00:00 | 00:00:00 | 00:00:00 | |
| MIELECB | 2026-09-04 23:27:00 | 50.02602 | 21.15445 | 93° | 95km/h | 3419m | 1.1m/s | 0°C | 0% | 0hPa | 0V | 00:00:00 | 00:00:00 | 00:00:00 | |
| AKAW68 | 2026-09-04 23:26:55 | 50.02605 | 21.15260 | 93° | 95km/h | 3404m | 4.4m/s | 0°C | 0% | 0hPa | 0V | 00:00:00 | 00:00:00 | 00:00:00 | |
| AKAW682 | 2026-09-04 23:26:52 | 50.02607 | 21.15151 | 94° | 91km/h | 3394m | 3.4m/s | 0°C | 0% | 0hPa | 0V | 00:00:00 | 00:00:00 | 00:00:00 | |
| MIELECB | 2026-09-04 23:26:49 | 50.02609 | 21.15042 | 93° | 100km/h | 3383m | 1.9m/s | 0°C | 0% | 0hPa | 0V | 00:00:00 | 00:00:00 | 00:00:00 | |
| SQ9EZE-12 | 2026-09-04 23:26:45 | 50.02614 | 21.14885 | 95° | 95km/h | 3372m | 4.0m/s | 0°C | 0% | 0hPa | 0V | 00:00:00 | 00:00:00 | 00:00:00 | |
| MIELECB | 2026-09-04 23:26:43 | 50.02615 | 21.14812 | 91° | 91km/h | 3366m | 4.5m/s | 0°C | 0% | 0hPa | 0V | 00:00:00 | 00:00:00 | 00:00:00 | |
| SQ9PSP-11 | 2026-09-04 23:26:40 | 50.02614 | 21.14708 | 91° | 93km/h | 3357m | 3.6m/s | 0°C | 0% | 0hPa | 0V | 00:00:00 | 00:00:00 | 00:00:00 | |
| MIELECB | 2026-09-04 23:26:37 | 50.02617 | 21.14591 | 94° | 99km/h | 3350m | 4.6m/s | 0°C | 0% | 0hPa | 0V | 00:00:00 | 00:00:00 | 00:00:00 | |
| AKAW68 | 2026-09-04 23:26:34 | 50.02622 | 21.14481 | 98° | 89km/h | 3339m | 3.2m/s | 0°C | 0% | 0hPa | 0V | 00:00:00 | 00:00:00 | 00:00:00 | |
| MIELECB | 2026-09-04 23:26:31 | 50.02630 | 21.14381 | 97° | 82km/h | 3330m | 1.5m/s | 0°C | 0% | 0hPa | 0V | 00:00:00 | 00:00:00 | 00:00:00 | |
| SQ9EZE-12 | 2026-09-04 23:26:30 | 50.02632 | 21.14348 | 99° | 84km/h | 3328m | 3.1m/s | 0°C | 0% | 0hPa | 0V | 00:00:00 | 00:00:00 | 00:00:00 | |
| SQ9PSP-11 | 2026-09-04 23:26:24 | 50.02634 | 21.14138 | 92° | 95km/h | 3304m | 3.0m/s | 0°C | 0% | 0hPa | 0V | 00:00:00 | 00:00:00 | 00:00:00 | |
| SQ9EZE-12 | 2026-09-04 23:26:15 | 50.02647 | 21.13815 | 96° | 95km/h | 3271m | 2.5m/s | 0°C | 0% | 0hPa | 0V | 00:00:00 | 00:00:00 | 00:00:00 | |
| AKAW68 | 2026-09-04 23:26:13 | 50.02651 | 21.13744 | 97° | 86km/h | 3268m | 2.4m/s | 0°C | 0% | 0hPa | 0V | 00:00:00 | 00:00:00 | 00:00:00 | |
| AKAW682 | 2026-09-04 23:26:11 | 50.02654 | 21.13678 | 92° | 86km/h | 3263m | 4.4m/s | 0°C | 0% | 0hPa | 0V | 00:00:00 | 00:00:00 | 00:00:00 | |
| SQ9PSP-11 | 2026-09-04 23:26:08 | 50.02656 | 21.13576 | 93° | 88km/h | 3250m | 2.9m/s | 0°C | 0% | 0hPa | 0V | 00:00:00 | 00:00:00 | 00:00:00 | |
| SQ9EZE-12 | 2026-09-04 23:25:58 | 50.02662 | 21.13244 | 88° | 93km/h | 3215m | 5.9m/s | 0°C | 0% | 0hPa | 0V | 00:00:00 | 00:00:00 | 00:00:00 | |
| SQ9PSP-11 | 2026-09-04 23:25:53 | 50.02656 | 21.13069 | 93° | 86km/h | 3199m | 2.8m/s | 0°C | 0% | 0hPa | 0V | 00:00:00 | 00:00:00 | 00:00:00 | |
| AKAW682 | 2026-09-04 23:25:50 | 50.02657 | 21.12964 | 93° | 88km/h | 3184m | 4.9m/s | 0°C | 0% | 0hPa | 0V | 00:00:00 | 00:00:00 | 00:00:00 | |
| SQ9EZE-12 | 2026-09-04 23:25:39 | 50.02644 | 21.12603 | 95° | 84km/h | 3148m | 1.2m/s | 0°C | 0% | 0hPa | 0V | 00:00:00 | 00:00:00 | 00:00:00 | |
| SQ9PSP-11 | 2026-09-04 23:25:37 | 50.02649 | 21.12536 | 94° | 88km/h | 3142m | 5.5m/s | 0°C | 0% | 0hPa | 0V | 00:00:00 | 00:00:00 | 00:00:00 | |
| AKAW68 | 2026-09-04 23:25:32 | 50.02646 | 21.12375 | 89° | 77km/h | 3124m | 4.8m/s | 0°C | 0% | 0hPa | 0V | 00:00:00 | 00:00:00 | 00:00:00 | |
| AKAW682 | 2026-09-04 23:25:29 | 50.02640 | 21.12283 | 85° | 86km/h | 3111m | 4.6m/s | 0°C | 0% | 0hPa | 0V | 00:00:00 | 00:00:00 | 00:00:00 | |
| MIELECB | 2026-09-04 23:25:27 | 50.02638 | 21.12212 | 91° | 95km/h | 3103m | 2.0m/s | 0°C | 0% | 0hPa | 0V | 00:00:00 | 00:00:00 | 00:00:00 | |
| SQ9EZE-12 | 2026-09-04 23:25:23 | 50.02639 | 21.12074 | 91° | 84km/h | 3089m | 4.4m/s | 0°C | 0% | 0hPa | 0V | 00:00:00 | 00:00:00 | 00:00:00 | |
| MIELECB | 2026-09-04 23:25:22 | 50.02639 | 21.12041 | 92° | 84km/h | 3084m | 4.8m/s | 0°C | 0% | 0hPa | 0V | 00:00:00 | 00:00:00 | 00:00:00 | |
| SQ9PSP-11 | 2026-09-04 23:25:17 | 50.02642 | 21.11869 | 95° | 82km/h | 3063m | 3.5m/s | 0°C | 0% | 0hPa | 0V | 00:00:00 | 00:00:00 | 00:00:00 | |
| AKAW68 | 2026-09-04 23:25:11 | 50.02643 | 21.11687 | 89° | 78km/h | 3045m | 2.0m/s | 0°C | 0% | 0hPa | 0V | 00:00:00 | 00:00:00 | 00:00:00 | |
| AKAW682 | 2026-09-04 23:25:07 | 50.02644 | 21.11558 | 94° | 86km/h | 3028m | 5.0m/s | 0°C | 0% | 0hPa | 0V | 00:00:00 | 00:00:00 | 00:00:00 | |
| SQ9EZE-12 | 2026-09-04 23:25:06 | 50.02645 | 21.11523 | 93° | 88km/h | 3023m | 4.4m/s | 0°C | 0% | 0hPa | 0V | 00:00:00 | 00:00:00 | 00:00:00 | |
| SQ9PSP-11 | 2026-09-04 23:25:02 | 50.02647 | 21.11395 | 95° | 77km/h | 3009m | 2.2m/s | 0°C | 0% | 0hPa | 0V | 00:00:00 | 00:00:00 | 00:00:00 | |
| MIELECB | 2026-09-04 23:25:00 | 50.02649 | 21.11334 | 93° | 78km/h | 3002m | 6.9m/s | 0°C | 0% | 0hPa | 0V | 00:00:00 | 00:00:00 | 00:00:00 | |
| MIELECB | 2026-09-04 23:24:53 | 50.02643 | 21.11115 | 96° | 82km/h | 2972m | 3.3m/s | 0°C | 0% | 0hPa | 0V | 00:00:00 | 00:00:00 | 00:00:00 | |
| AKAW68 | 2026-09-04 23:24:51 | 50.02648 | 21.11052 | 98° | 80km/h | 2963m | 4.4m/s | 0°C | 0% | 0hPa | 0V | 00:00:00 | 00:00:00 | 00:00:00 | |
| SQ9EZE-12 | 2026-09-04 23:24:49 | 50.02650 | 21.10990 | 91° | 78km/h | 2958m | 0.7m/s | 0°C | 0% | 0hPa | 0V | 00:00:00 | 00:00:00 | 00:00:00 | |
| AKAW682 | 2026-09-04 23:24:47 | 50.02649 | 21.10930 | 93° | 77km/h | 2952m | 1.4m/s | 0°C | 0% | 0hPa | 0V | 00:00:00 | 00:00:00 | 00:00:00 | |
| SQ9PSP-11 | 2026-09-04 23:24:46 | 50.02650 | 21.10899 | 94° | 78km/h | 2949m | 4.2m/s | 0°C | 0% | 0hPa | 0V | 00:00:00 | 00:00:00 | 00:00:00 | |
| SQ9EZE-12 | 2026-09-04 23:24:33 | 50.02652 | 21.10498 | 97° | 78km/h | 2896m | 4.6m/s | 0°C | 0% | 0hPa | 0V | 00:00:00 | 00:00:00 | 00:00:00 | |
| SQ9PSP-11 | 2026-09-04 23:24:30 | 50.02653 | 21.10405 | 91° | 80km/h | 2886m | 5.0m/s | 0°C | 0% | 0hPa | 0V | 00:00:00 | 00:00:00 | 00:00:00 | |
| AKAW682 | 2026-09-04 23:24:26 | 50.02655 | 21.10275 | 93° | 80km/h | 2872m | 2.7m/s | 0°C | 0% | 0hPa | 0V | 00:00:00 | 00:00:00 | 00:00:00 | |
| SQ9EZE-12 | 2026-09-04 23:24:18 | 50.02660 | 21.10043 | 93° | 77km/h | 2843m | 1.2m/s | 0°C | 0% | 0hPa | 0V | 00:00:00 | 00:00:00 | 00:00:00 | |
| SQ9PSP-11 | 2026-09-04 23:24:15 | 50.02662 | 21.09958 | 92° | 71km/h | 2833m | 2.1m/s | 0°C | 0% | 0hPa | 0V | 00:00:00 | 00:00:00 | 00:00:00 | |
| MIELECB | 2026-09-04 23:24:13 | 50.02663 | 21.09901 | 93° | 75km/h | 2825m | 4.4m/s | 0°C | 0% | 0hPa | 0V | 00:00:00 | 00:00:00 | 00:00:00 | |
| AKAW68 | 2026-09-04 23:24:10 | 50.02664 | 21.09809 | 87° | 78km/h | 2812m | 3.5m/s | 0°C | 0% | 0hPa | 0V | 00:00:00 | 00:00:00 | 00:00:00 | |
| AKAW682 | 2026-09-04 23:24:05 | 50.02655 | 21.09659 | 87° | 73km/h | 2793m | 4.1m/s | 0°C | 0% | 0hPa | 0V | 00:00:00 | 00:00:00 | 00:00:00 | |
| SQ9EZE-12 | 2026-09-04 23:24:01 | 50.02652 | 21.09549 | 87° | 75km/h | 2777m | 2.3m/s | 0°C | 0% | 0hPa | 0V | 00:00:00 | 00:00:00 | 00:00:00 | |
| SQ9PSP-11 | 2026-09-04 23:24:00 | 50.02651 | 21.09519 | 85° | 78km/h | 2773m | 5.6m/s | 0°C | 0% | 0hPa | 0V | 00:00:00 | 00:00:00 | 00:00:00 | |
| AKAW68 | 2026-09-04 23:23:49 | 50.02641 | 21.09203 | 87° | 78km/h | 2727m | 3.2m/s | 0°C | 0% | 0hPa | 0V | 00:00:00 | 00:00:00 | 00:00:00 | |
| SQ9PSP-11 | 2026-09-04 23:23:45 | 50.02636 | 21.09082 | 91° | 75km/h | 2711m | 4.3m/s | 0°C | 0% | 0hPa | 0V | 00:00:00 | 00:00:00 | 00:00:00 | |
| SQ9EZE-12 | 2026-09-04 23:23:42 | 50.02637 | 21.08962 | 91° | 71km/h | 2691m | 2.7m/s | 0°C | 0% | 0hPa | 0V | 00:00:00 | 00:00:00 | 00:00:00 | |
| AKAW682 | 2026-09-04 23:23:41 | 50.02637 | 21.08962 | 91° | 71km/h | 2691m | 2.7m/s | 0°C | 0% | 0hPa | 0V | 00:00:00 | 00:00:00 | 00:00:00 | |
| SQ9PSP-11 | 2026-09-04 23:23:29 | 50.02628 | 21.08610 | 91° | 73km/h | 2638m | 5.1m/s | 0°C | 0% | 0hPa | 0V | 00:00:00 | 00:00:00 | 00:00:00 | |
| SQ9EZE-12 | 2026-09-04 23:23:23 | 50.02630 | 21.08429 | 95° | 75km/h | 2611m | 2.4m/s | 0°C | 0% | 0hPa | 0V | 00:00:00 | 00:00:00 | 00:00:00 | |
| SQ9PSP-11 | 2026-09-04 23:23:13 | 50.02623 | 21.08142 | 93° | 75km/h | 2572m | 3.5m/s | 0°C | 0% | 0hPa | 0V | 00:00:00 | 00:00:00 | 00:00:00 | |
| AKAW68 | 2026-09-04 23:23:08 | 50.02618 | 21.07989 | 86° | 75km/h | 2553m | 3.5m/s | 0°C | 0% | 0hPa | 0V | 00:00:00 | 00:00:00 | 00:00:00 | |
| SQ9PSP-11 | 2026-09-04 23:22:58 | 50.02612 | 21.07702 | 86° | 77km/h | 2509m | 4.1m/s | 0°C | 0% | 0hPa | 0V | 00:00:00 | 00:00:00 | 00:00:00 | |
| SQ9PSP-11 | 2026-09-04 23:22:42 | 50.02590 | 21.07237 | 90° | 64km/h | 2436m | 4.8m/s | 0°C | 0% | 0hPa | 0V | 00:00:00 | 00:00:00 | 00:00:00 | |
| SQ9EZE-12 | 2026-09-04 23:22:39 | 50.02588 | 21.07158 | 89° | 73km/h | 2419m | 4.0m/s | 0°C | 0% | 0hPa | 0V | 00:00:00 | 00:00:00 | 00:00:00 | |
| AKAW68 | 2026-09-04 23:22:32 | 50.02593 | 21.06947 | 86° | 71km/h | 2386m | 5.3m/s | 0°C | 0% | 0hPa | 0V | 00:00:00 | 00:00:00 | 00:00:00 | |
| SQ9PSP-11 | 2026-09-04 23:22:26 | 50.02598 | 21.06772 | 99° | 71km/h | 2352m | 2.2m/s | 0°C | 0% | 0hPa | 0V | 00:00:00 | 00:00:00 | 00:00:00 | |
| MIELECB | 2026-09-04 23:22:16 | 50.02603 | 21.06481 | 98° | 78km/h | 2309m | 3.3m/s | 0°C | 0% | 0hPa | 0V | 00:00:00 | 00:00:00 | 00:00:00 | |
| SQ9EZE-12 | 2026-09-04 23:22:12 | 50.02609 | 21.06355 | 99° | 78km/h | 2292m | 4.3m/s | 0°C | 0% | 0hPa | 0V | 00:00:00 | 00:00:00 | 00:00:00 | |
| AKAW68 | 2026-09-04 23:22:11 | 50.02613 | 21.06323 | 99° | 84km/h | 2286m | 5.7m/s | 0°C | 0% | 0hPa | 0V | 00:00:00 | 00:00:00 | 00:00:00 | |
| SQ9PSP-11 | 2026-09-04 23:22:10 | 50.02616 | 21.06292 | 101° | 78km/h | 2281m | 4.4m/s | 0°C | 0% | 0hPa | 0V | 00:00:00 | 00:00:00 | 00:00:00 | |
| SQ9PSP-11 | 2026-09-04 23:21:55 | 50.02634 | 21.05842 | 92° | 78km/h | 2211m | 3.3m/s | 0°C | 0% | 0hPa | 0V | 00:00:00 | 00:00:00 | 00:00:00 | |
| AKAW68 | 2026-09-04 23:21:51 | 50.02646 | 21.05725 | 106° | 82km/h | 2191m | 1.6m/s | 0°C | 0% | 0hPa | 0V | 00:00:00 | 00:00:00 | 00:00:00 | |
| SQ9PSP-11 | 2026-09-04 23:21:39 | 50.02677 | 21.05331 | 90° | 84km/h | 2138m | 5.8m/s | 0°C | 0% | 0hPa | 0V | 00:00:00 | 00:00:00 | 00:00:00 | |
| SQ9EZE-12 | 2026-09-04 23:21:37 | 50.02677 | 21.05260 | 91° | 97km/h | 2129m | 1.6m/s | 0°C | 0% | 0hPa | 0V | 00:00:00 | 00:00:00 | 00:00:00 | |
| AKAW68 | 2026-09-04 23:21:31 | 50.02682 | 21.05053 | 105° | 88km/h | 2099m | 5.9m/s | 0°C | 0% | 0hPa | 0V | 00:00:00 | 00:00:00 | 00:00:00 | |
| SQ9PSP-11 | 2026-09-04 23:21:24 | 50.02711 | 21.04834 | 93° | 78km/h | 2067m | 4.5m/s | 0°C | 0% | 0hPa | 0V | 00:00:00 | 00:00:00 | 00:00:00 | |
| SQ9EZE-12 | 2026-09-04 23:21:18 | 50.02729 | 21.04621 | 99° | 89km/h | 2039m | 1.3m/s | 0°C | 0% | 0hPa | 0V | 00:00:00 | 00:00:00 | 00:00:00 | |
| MIELECB | 2026-09-04 23:21:12 | 50.02740 | 21.04434 | 104° | 82km/h | 2015m | 2.2m/s | 0°C | 0% | 0hPa | 0V | 00:00:00 | 00:00:00 | 00:00:00 | |
| AKAW68 | 2026-09-04 23:21:10 | 50.02749 | 21.04367 | 102° | 88km/h | 2005m | 3.2m/s | 0°C | 0% | 0hPa | 0V | 00:00:00 | 00:00:00 | 00:00:00 | |
| SQ9PSP-11 | 2026-09-04 23:21:09 | 50.02754 | 21.04333 | 104° | 89km/h | 2002m | 2.1m/s | 0°C | 0% | 0hPa | 0V | 00:00:00 | 00:00:00 | 00:00:00 | |
| AKAW68 | 2026-09-04 23:20:50 | 50.02793 | 21.03718 | 91° | 100km/h | 1912m | 5.9m/s | 0°C | 0% | 0hPa | 0V | 00:00:00 | 00:00:00 | 00:00:00 | |
| SQ9PSP-11 | 2026-09-04 23:20:28 | 50.02842 | 21.02993 | 101° | 89km/h | 1792m | 3.0m/s | 0°C | 0% | 0hPa | 0V | 00:00:00 | 00:00:00 | 00:00:00 | |
| SQ9PSP-11 | 2026-09-04 23:20:12 | 50.02880 | 21.02460 | 93° | 99km/h | 1719m | 3.1m/s | 0°C | 0% | 0hPa | 0V | 00:00:00 | 00:00:00 | 00:00:00 | |
| SQ9PSP-11 | 2026-09-04 23:19:50 | 50.02922 | 21.01731 | 87° | 91km/h | 1604m | 4.8m/s | 0°C | 0% | 0hPa | 0V | 00:00:00 | 00:00:00 | 00:00:00 | |
| AKAW68 | 2026-09-04 23:19:14 | 50.02999 | 21.00484 | 103° | 84km/h | 1414m | 2.5m/s | 0°C | 0% | 0hPa | 0V | 00:00:00 | 00:00:00 | 00:00:00 | |
| AKAW68 | 2026-09-04 23:18:54 | 50.03007 | 20.99796 | 87° | 95km/h | 1314m | 3.1m/s | 0°C | 0% | 0hPa | 0V | 00:00:00 | 00:00:00 | 00:00:00 | |
| AKAW68 | 2026-09-04 23:18:25 | 50.03045 | 20.98793 | 88° | 82km/h | 1166m | 4.5m/s | 0°C | 0% | 0hPa | 0V | 00:00:00 | 00:00:00 | 00:00:00 | |
| AKAW68 | 2026-09-04 23:18:02 | 50.03084 | 20.98041 | 99° | 104km/h | 1050m | 4.3m/s | 0°C | 0% | 0hPa | 0V | 00:00:00 | 00:00:00 | 00:00:00 | |
| AKAW68 | 2026-09-04 23:17:41 | 50.03139 | 20.97286 | 88° | 100km/h | 945m | 3.5m/s | 0°C | 0% | 0hPa | 0V | 00:00:00 | 00:00:00 | 00:00:00 | |
| AKAW68 | 2026-09-04 23:17:21 | 50.03141 | 20.96648 | 91° | 75km/h | 835m | 4.9m/s | 0°C | 0% | 0hPa | 0V | 00:00:00 | 00:00:00 | 00:00:00 |